<?xml version="1.0" encoding="UTF-8" standalone="no" ?>
<gpx xmlns="http://www.topografix.com/GPX/1/1" xmlns:xsi="http://www.w3.org/2001/XMLSchema-instance" xsi:schemaLocation="http://www.topografix.com/GPX/1/1 http://www.topografix.com/GPX/1/1/gpx.xsd" version="1.1" creator="VisuGPX - https://www.visugpx.com">
  <metadata>
    <name>Plateau Theric</name>
    <desc><![CDATA[essai de boucle ]]></desc>
  </metadata>
  <wpt lat="43.6402" lon="5.43235">
    <ele>365</ele>
    <name><![CDATA[Path]]></name>
    <desc><![CDATA[Path]]></desc>
    <cmt><![CDATA[Path]]></cmt>
  </wpt>
  <wpt lat="43.64273" lon="5.4334">
    <ele>368</ele>
    <name><![CDATA[Path1]]></name>
    <desc><![CDATA[Path]]></desc>
    <cmt><![CDATA[Path]]></cmt>
  </wpt>
  <trk>
    <name><![CDATA[2 Rec Plateau]]></name>
    <trkseg>
      <trkpt lat="43.64374" lon="5.43378">
        <ele>367.85</ele>
        <time>2021-04-18T09:12:18Z</time>
      </trkpt>
      <trkpt lat="43.64377" lon="5.43379">
        <ele>367.44</ele>
        <time>2021-04-18T09:12:40Z</time>
      </trkpt>
      <trkpt lat="43.64376" lon="5.43381">
        <ele>368.43</ele>
        <time>2021-04-18T09:13:04Z</time>
      </trkpt>
      <trkpt lat="43.64379" lon="5.43377">
        <ele>367.6</ele>
        <time>2021-04-18T09:13:23Z</time>
      </trkpt>
      <trkpt lat="43.64374" lon="5.43378">
        <ele>367.5</ele>
        <time>2021-04-18T09:13:53Z</time>
      </trkpt>
      <trkpt lat="43.64375" lon="5.43378">
        <ele>367.24</ele>
        <time>2021-04-18T09:14:41Z</time>
      </trkpt>
      <trkpt lat="43.64375" lon="5.43379">
        <ele>368.17</ele>
        <time>2021-04-18T09:15:06Z</time>
      </trkpt>
      <trkpt lat="43.64371" lon="5.43369">
        <ele>368.3</ele>
        <time>2021-04-18T09:15:21Z</time>
      </trkpt>
      <trkpt lat="43.64366" lon="5.43365">
        <ele>368.22</ele>
        <time>2021-04-18T09:15:29Z</time>
      </trkpt>
      <trkpt lat="43.6435" lon="5.4335">
        <ele>368.85</ele>
        <time>2021-04-18T09:15:48Z</time>
      </trkpt>
      <trkpt lat="43.64328" lon="5.43343">
        <ele>366.91</ele>
        <time>2021-04-18T09:16:08Z</time>
      </trkpt>
      <trkpt lat="43.64307" lon="5.43336">
        <ele>366.66</ele>
        <time>2021-04-18T09:16:28Z</time>
      </trkpt>
      <trkpt lat="43.64286" lon="5.43338">
        <ele>366.22</ele>
        <time>2021-04-18T09:16:49Z</time>
      </trkpt>
      <trkpt lat="43.64283" lon="5.4334">
        <ele>366.81</ele>
        <time>2021-04-18T09:16:53Z</time>
      </trkpt>
      <trkpt lat="43.64269" lon="5.43342">
        <ele>365.63</ele>
        <time>2021-04-18T09:17:11Z</time>
      </trkpt>
      <trkpt lat="43.64264" lon="5.4334">
        <ele>364.22</ele>
        <time>2021-04-18T09:17:20Z</time>
      </trkpt>
      <trkpt lat="43.64253" lon="5.43329">
        <ele>363.85</ele>
        <time>2021-04-18T09:17:39Z</time>
      </trkpt>
      <trkpt lat="43.64245" lon="5.43328">
        <ele>362.68</ele>
        <time>2021-04-18T09:18:29Z</time>
      </trkpt>
      <trkpt lat="43.64238" lon="5.43317">
        <ele>360.94</ele>
        <time>2021-04-18T09:18:49Z</time>
      </trkpt>
      <trkpt lat="43.64237" lon="5.43316">
        <ele>360.74</ele>
        <time>2021-04-18T09:18:50Z</time>
      </trkpt>
      <trkpt lat="43.64234" lon="5.43309">
        <ele>361.04</ele>
        <time>2021-04-18T09:18:56Z</time>
      </trkpt>
      <trkpt lat="43.64232" lon="5.43307">
        <ele>360.7</ele>
        <time>2021-04-18T09:18:58Z</time>
      </trkpt>
      <trkpt lat="43.64217" lon="5.43292">
        <ele>359.9</ele>
        <time>2021-04-18T09:19:15Z</time>
      </trkpt>
      <trkpt lat="43.64199" lon="5.43283">
        <ele>358.48</ele>
        <time>2021-04-18T09:19:31Z</time>
      </trkpt>
      <trkpt lat="43.64197" lon="5.43284">
        <ele>358.92</ele>
        <time>2021-04-18T09:19:33Z</time>
      </trkpt>
      <trkpt lat="43.64188" lon="5.43283">
        <ele>358.74</ele>
        <time>2021-04-18T09:19:40Z</time>
      </trkpt>
      <trkpt lat="43.64181" lon="5.43282">
        <ele>358.68</ele>
        <time>2021-04-18T09:19:46Z</time>
      </trkpt>
      <trkpt lat="43.64164" lon="5.43276">
        <ele>357.66</ele>
        <time>2021-04-18T09:20:02Z</time>
      </trkpt>
      <trkpt lat="43.64151" lon="5.43276">
        <ele>357.94</ele>
        <time>2021-04-18T09:20:17Z</time>
      </trkpt>
      <trkpt lat="43.64136" lon="5.43274">
        <ele>358.95</ele>
        <time>2021-04-18T09:20:33Z</time>
      </trkpt>
      <trkpt lat="43.64119" lon="5.43266">
        <ele>359.93</ele>
        <time>2021-04-18T09:20:52Z</time>
      </trkpt>
      <trkpt lat="43.64103" lon="5.43261">
        <ele>359.88</ele>
        <time>2021-04-18T09:21:06Z</time>
      </trkpt>
      <trkpt lat="43.64092" lon="5.43256">
        <ele>360.34</ele>
        <time>2021-04-18T09:21:13Z</time>
      </trkpt>
      <trkpt lat="43.64075" lon="5.43248">
        <ele>360.41</ele>
        <time>2021-04-18T09:21:29Z</time>
      </trkpt>
      <trkpt lat="43.64072" lon="5.43247">
        <ele>360.2</ele>
        <time>2021-04-18T09:21:31Z</time>
      </trkpt>
      <trkpt lat="43.64056" lon="5.43245">
        <ele>360.26</ele>
        <time>2021-04-18T09:21:47Z</time>
      </trkpt>
      <trkpt lat="43.64033" lon="5.43242">
        <ele>359.39</ele>
        <time>2021-04-18T09:22:10Z</time>
      </trkpt>
      <trkpt lat="43.64016" lon="5.43234">
        <ele>359.86</ele>
        <time>2021-04-18T09:22:31Z</time>
      </trkpt>
      <trkpt lat="43.63998" lon="5.43228">
        <ele>360.12</ele>
        <time>2021-04-18T09:22:51Z</time>
      </trkpt>
      <trkpt lat="43.63975" lon="5.43226">
        <ele>360.54</ele>
        <time>2021-04-18T09:23:13Z</time>
      </trkpt>
      <trkpt lat="43.63961" lon="5.43225">
        <ele>359.69</ele>
        <time>2021-04-18T09:23:27Z</time>
      </trkpt>
      <trkpt lat="43.63941" lon="5.4322">
        <ele>360.13</ele>
        <time>2021-04-18T09:23:45Z</time>
      </trkpt>
      <trkpt lat="43.63935" lon="5.43217">
        <ele>360.01</ele>
        <time>2021-04-18T09:23:50Z</time>
      </trkpt>
      <trkpt lat="43.63931" lon="5.43217">
        <ele>360.3</ele>
        <time>2021-04-18T09:23:52Z</time>
      </trkpt>
      <trkpt lat="43.63918" lon="5.43215">
        <ele>360.13</ele>
        <time>2021-04-18T09:24:08Z</time>
      </trkpt>
      <trkpt lat="43.63911" lon="5.43212">
        <ele>358.97</ele>
        <time>2021-04-18T09:24:15Z</time>
      </trkpt>
      <trkpt lat="43.63907" lon="5.43211">
        <ele>360.46</ele>
        <time>2021-04-18T09:24:18Z</time>
      </trkpt>
      <trkpt lat="43.63893" lon="5.43208">
        <ele>360.78</ele>
        <time>2021-04-18T09:24:31Z</time>
      </trkpt>
      <trkpt lat="43.63878" lon="5.43205">
        <ele>361.71</ele>
        <time>2021-04-18T09:24:45Z</time>
      </trkpt>
      <trkpt lat="43.63868" lon="5.43203">
        <ele>361.44</ele>
        <time>2021-04-18T09:24:54Z</time>
      </trkpt>
      <trkpt lat="43.63856" lon="5.43201">
        <ele>361.78</ele>
        <time>2021-04-18T09:25:05Z</time>
      </trkpt>
      <trkpt lat="43.63845" lon="5.43199">
        <ele>362.72</ele>
        <time>2021-04-18T09:25:15Z</time>
      </trkpt>
      <trkpt lat="43.63823" lon="5.43199">
        <ele>363.58</ele>
        <time>2021-04-18T09:25:36Z</time>
      </trkpt>
      <trkpt lat="43.63809" lon="5.43201">
        <ele>364.04</ele>
        <time>2021-04-18T09:25:52Z</time>
      </trkpt>
      <trkpt lat="43.63795" lon="5.43197">
        <ele>364.83</ele>
        <time>2021-04-18T09:26:09Z</time>
      </trkpt>
      <trkpt lat="43.63778" lon="5.43192">
        <ele>366.34</ele>
        <time>2021-04-18T09:26:25Z</time>
      </trkpt>
      <trkpt lat="43.63766" lon="5.43189">
        <ele>368.31</ele>
        <time>2021-04-18T09:26:43Z</time>
      </trkpt>
      <trkpt lat="43.63754" lon="5.43186">
        <ele>370.63</ele>
        <time>2021-04-18T09:27:01Z</time>
      </trkpt>
      <trkpt lat="43.63744" lon="5.43176">
        <ele>372.58</ele>
        <time>2021-04-18T09:27:22Z</time>
      </trkpt>
      <trkpt lat="43.63729" lon="5.43179">
        <ele>372.62</ele>
        <time>2021-04-18T09:27:38Z</time>
      </trkpt>
      <trkpt lat="43.63709" lon="5.43175">
        <ele>373.05</ele>
        <time>2021-04-18T09:27:59Z</time>
      </trkpt>
      <trkpt lat="43.63697" lon="5.43176">
        <ele>373.03</ele>
        <time>2021-04-18T09:28:11Z</time>
      </trkpt>
      <trkpt lat="43.63687" lon="5.43176">
        <ele>373.05</ele>
        <time>2021-04-18T09:28:21Z</time>
      </trkpt>
      <trkpt lat="43.63672" lon="5.43178">
        <ele>372.66</ele>
        <time>2021-04-18T09:28:37Z</time>
      </trkpt>
      <trkpt lat="43.63654" lon="5.43174">
        <ele>373.59</ele>
        <time>2021-04-18T09:28:57Z</time>
      </trkpt>
      <trkpt lat="43.6364" lon="5.43178">
        <ele>374.38</ele>
        <time>2021-04-18T09:29:13Z</time>
      </trkpt>
      <trkpt lat="43.63628" lon="5.43178">
        <ele>375.02</ele>
        <time>2021-04-18T09:29:26Z</time>
      </trkpt>
      <trkpt lat="43.63613" lon="5.43179">
        <ele>376.02</ele>
        <time>2021-04-18T09:29:42Z</time>
      </trkpt>
      <trkpt lat="43.63602" lon="5.43181">
        <ele>376.58</ele>
        <time>2021-04-18T09:29:59Z</time>
      </trkpt>
      <trkpt lat="43.63585" lon="5.4319">
        <ele>377.93</ele>
        <time>2021-04-18T09:30:20Z</time>
      </trkpt>
      <trkpt lat="43.63566" lon="5.43201">
        <ele>378.27</ele>
        <time>2021-04-18T09:30:39Z</time>
      </trkpt>
      <trkpt lat="43.63553" lon="5.43205">
        <ele>378.77</ele>
        <time>2021-04-18T09:30:53Z</time>
      </trkpt>
      <trkpt lat="43.63541" lon="5.4321">
        <ele>379.23</ele>
        <time>2021-04-18T09:31:07Z</time>
      </trkpt>
      <trkpt lat="43.63528" lon="5.43214">
        <ele>380.38</ele>
        <time>2021-04-18T09:31:24Z</time>
      </trkpt>
      <trkpt lat="43.63515" lon="5.43211">
        <ele>381.27</ele>
        <time>2021-04-18T09:31:40Z</time>
      </trkpt>
      <trkpt lat="43.635" lon="5.43212">
        <ele>382.82</ele>
        <time>2021-04-18T09:31:59Z</time>
      </trkpt>
      <trkpt lat="43.63481" lon="5.43214">
        <ele>385.4</ele>
        <time>2021-04-18T09:32:20Z</time>
      </trkpt>
      <trkpt lat="43.63481" lon="5.43214">
        <ele>385.55</ele>
        <time>2021-04-18T09:32:21Z</time>
      </trkpt>
      <trkpt lat="43.63473" lon="5.43215">
        <ele>385.73</ele>
        <time>2021-04-18T09:32:44Z</time>
      </trkpt>
      <trkpt lat="43.63465" lon="5.43212">
        <ele>387.26</ele>
        <time>2021-04-18T09:32:58Z</time>
      </trkpt>
      <trkpt lat="43.63452" lon="5.43208">
        <ele>389.2</ele>
        <time>2021-04-18T09:33:19Z</time>
      </trkpt>
      <trkpt lat="43.63435" lon="5.4321">
        <ele>390.74</ele>
        <time>2021-04-18T09:33:39Z</time>
      </trkpt>
      <trkpt lat="43.63418" lon="5.43206">
        <ele>391.09</ele>
        <time>2021-04-18T09:33:59Z</time>
      </trkpt>
      <trkpt lat="43.634" lon="5.43213">
        <ele>392.09</ele>
        <time>2021-04-18T09:34:19Z</time>
      </trkpt>
      <trkpt lat="43.63392" lon="5.43222">
        <ele>392.25</ele>
        <time>2021-04-18T09:34:34Z</time>
      </trkpt>
      <trkpt lat="43.63384" lon="5.43228">
        <ele>392</ele>
        <time>2021-04-18T09:34:42Z</time>
      </trkpt>
      <trkpt lat="43.6338" lon="5.43234">
        <ele>391.7</ele>
        <time>2021-04-18T09:34:47Z</time>
      </trkpt>
      <trkpt lat="43.63372" lon="5.43255">
        <ele>392.23</ele>
        <time>2021-04-18T09:35:05Z</time>
      </trkpt>
      <trkpt lat="43.63376" lon="5.43276">
        <ele>391.94</ele>
        <time>2021-04-18T09:35:22Z</time>
      </trkpt>
      <trkpt lat="43.63379" lon="5.43284">
        <ele>391.76</ele>
        <time>2021-04-18T09:35:28Z</time>
      </trkpt>
      <trkpt lat="43.63391" lon="5.43306">
        <ele>391.36</ele>
        <time>2021-04-18T09:35:47Z</time>
      </trkpt>
      <trkpt lat="43.63397" lon="5.43325">
        <ele>388.83</ele>
        <time>2021-04-18T09:36:03Z</time>
      </trkpt>
      <trkpt lat="43.63405" lon="5.43344">
        <ele>385.68</ele>
        <time>2021-04-18T09:36:20Z</time>
      </trkpt>
      <trkpt lat="43.63405" lon="5.43346">
        <ele>385.65</ele>
        <time>2021-04-18T09:36:21Z</time>
      </trkpt>
      <trkpt lat="43.63404" lon="5.43349">
        <ele>385.44</ele>
        <time>2021-04-18T09:36:23Z</time>
      </trkpt>
      <trkpt lat="43.63392" lon="5.43355">
        <ele>386.23</ele>
        <time>2021-04-18T09:36:39Z</time>
      </trkpt>
      <trkpt lat="43.63369" lon="5.43361">
        <ele>386.82</ele>
        <time>2021-04-18T09:36:59Z</time>
      </trkpt>
      <trkpt lat="43.63349" lon="5.4337">
        <ele>386.64</ele>
        <time>2021-04-18T09:37:19Z</time>
      </trkpt>
      <trkpt lat="43.63331" lon="5.43372">
        <ele>386.29</ele>
        <time>2021-04-18T09:37:36Z</time>
      </trkpt>
      <trkpt lat="43.63313" lon="5.43378">
        <ele>385.74</ele>
        <time>2021-04-18T09:37:53Z</time>
      </trkpt>
      <trkpt lat="43.63292" lon="5.43385">
        <ele>386.37</ele>
        <time>2021-04-18T09:38:12Z</time>
      </trkpt>
      <trkpt lat="43.63287" lon="5.43387">
        <ele>386.96</ele>
        <time>2021-04-18T09:38:17Z</time>
      </trkpt>
      <trkpt lat="43.63274" lon="5.4339">
        <ele>386.63</ele>
        <time>2021-04-18T09:38:32Z</time>
      </trkpt>
      <trkpt lat="43.63258" lon="5.43393">
        <ele>386.65</ele>
        <time>2021-04-18T09:38:50Z</time>
      </trkpt>
      <trkpt lat="43.63239" lon="5.43398">
        <ele>387.66</ele>
        <time>2021-04-18T09:39:07Z</time>
      </trkpt>
      <trkpt lat="43.63225" lon="5.43404">
        <ele>387.05</ele>
        <time>2021-04-18T09:39:21Z</time>
      </trkpt>
      <trkpt lat="43.63211" lon="5.43416">
        <ele>386.75</ele>
        <time>2021-04-18T09:39:35Z</time>
      </trkpt>
      <trkpt lat="43.63198" lon="5.43428">
        <ele>386.62</ele>
        <time>2021-04-18T09:39:52Z</time>
      </trkpt>
      <trkpt lat="43.63185" lon="5.43442">
        <ele>386.5</ele>
        <time>2021-04-18T09:40:08Z</time>
      </trkpt>
      <trkpt lat="43.63171" lon="5.43454">
        <ele>387.38</ele>
        <time>2021-04-18T09:40:23Z</time>
      </trkpt>
      <trkpt lat="43.63164" lon="5.4347">
        <ele>385.65</ele>
        <time>2021-04-18T09:40:39Z</time>
      </trkpt>
      <trkpt lat="43.6317" lon="5.4348">
        <ele>384.49</ele>
        <time>2021-04-18T09:40:56Z</time>
      </trkpt>
      <trkpt lat="43.63164" lon="5.43471">
        <ele>385.85</ele>
        <time>2021-04-18T09:41:17Z</time>
      </trkpt>
      <trkpt lat="43.63156" lon="5.43481">
        <ele>385.99</ele>
        <time>2021-04-18T09:41:31Z</time>
      </trkpt>
      <trkpt lat="43.63143" lon="5.43494">
        <ele>385.84</ele>
        <time>2021-04-18T09:41:47Z</time>
      </trkpt>
      <trkpt lat="43.63131" lon="5.43512">
        <ele>386.81</ele>
        <time>2021-04-18T09:42:06Z</time>
      </trkpt>
      <trkpt lat="43.63142" lon="5.43517">
        <ele>385.3</ele>
        <time>2021-04-18T09:42:26Z</time>
      </trkpt>
      <trkpt lat="43.63139" lon="5.43517">
        <ele>386.14</ele>
        <time>2021-04-18T09:42:46Z</time>
      </trkpt>
      <trkpt lat="43.63125" lon="5.43519">
        <ele>387.43</ele>
        <time>2021-04-18T09:43:04Z</time>
      </trkpt>
      <trkpt lat="43.63106" lon="5.43529">
        <ele>389.18</ele>
        <time>2021-04-18T09:43:25Z</time>
      </trkpt>
      <trkpt lat="43.63093" lon="5.43546">
        <ele>390.64</ele>
        <time>2021-04-18T09:43:46Z</time>
      </trkpt>
      <trkpt lat="43.63084" lon="5.43559">
        <ele>390.7</ele>
        <time>2021-04-18T09:44:01Z</time>
      </trkpt>
      <trkpt lat="43.63075" lon="5.43573">
        <ele>391.17</ele>
        <time>2021-04-18T09:44:16Z</time>
      </trkpt>
      <trkpt lat="43.63065" lon="5.4358">
        <ele>391.19</ele>
        <time>2021-04-18T09:44:27Z</time>
      </trkpt>
      <trkpt lat="43.63063" lon="5.43583">
        <ele>390.6</ele>
        <time>2021-04-18T09:44:30Z</time>
      </trkpt>
      <trkpt lat="43.6306" lon="5.43588">
        <ele>391.02</ele>
        <time>2021-04-18T09:44:34Z</time>
      </trkpt>
      <trkpt lat="43.63048" lon="5.43613">
        <ele>391.61</ele>
        <time>2021-04-18T09:44:55Z</time>
      </trkpt>
      <trkpt lat="43.63036" lon="5.43639">
        <ele>391.92</ele>
        <time>2021-04-18T09:45:15Z</time>
      </trkpt>
      <trkpt lat="43.63024" lon="5.43656">
        <ele>391.81</ele>
        <time>2021-04-18T09:45:32Z</time>
      </trkpt>
      <trkpt lat="43.63009" lon="5.43667">
        <ele>392.52</ele>
        <time>2021-04-18T09:45:50Z</time>
      </trkpt>
      <trkpt lat="43.62996" lon="5.43676">
        <ele>391.93</ele>
        <time>2021-04-18T09:46:06Z</time>
      </trkpt>
      <trkpt lat="43.62981" lon="5.43684">
        <ele>392.11</ele>
        <time>2021-04-18T09:46:23Z</time>
      </trkpt>
      <trkpt lat="43.62964" lon="5.43694">
        <ele>392.93</ele>
        <time>2021-04-18T09:46:40Z</time>
      </trkpt>
      <trkpt lat="43.62949" lon="5.43698">
        <ele>394.03</ele>
        <time>2021-04-18T09:46:58Z</time>
      </trkpt>
      <trkpt lat="43.62934" lon="5.43695">
        <ele>395.29</ele>
        <time>2021-04-18T09:47:18Z</time>
      </trkpt>
      <trkpt lat="43.62919" lon="5.43692">
        <ele>396.79</ele>
        <time>2021-04-18T09:47:35Z</time>
      </trkpt>
      <trkpt lat="43.62907" lon="5.43685">
        <ele>397.74</ele>
        <time>2021-04-18T09:47:53Z</time>
      </trkpt>
      <trkpt lat="43.62896" lon="5.43678">
        <ele>398.64</ele>
        <time>2021-04-18T09:48:09Z</time>
      </trkpt>
      <trkpt lat="43.62883" lon="5.43673">
        <ele>400.44</ele>
        <time>2021-04-18T09:48:29Z</time>
      </trkpt>
      <trkpt lat="43.62873" lon="5.43665">
        <ele>402.29</ele>
        <time>2021-04-18T09:48:48Z</time>
      </trkpt>
      <trkpt lat="43.62862" lon="5.43655">
        <ele>404.54</ele>
        <time>2021-04-18T09:49:07Z</time>
      </trkpt>
      <trkpt lat="43.62852" lon="5.43644">
        <ele>405.66</ele>
        <time>2021-04-18T09:49:26Z</time>
      </trkpt>
      <trkpt lat="43.62841" lon="5.43632">
        <ele>407.55</ele>
        <time>2021-04-18T09:49:48Z</time>
      </trkpt>
      <trkpt lat="43.6283" lon="5.43625">
        <ele>409.88</ele>
        <time>2021-04-18T09:50:08Z</time>
      </trkpt>
      <trkpt lat="43.62822" lon="5.43622">
        <ele>411.26</ele>
        <time>2021-04-18T09:50:22Z</time>
      </trkpt>
      <trkpt lat="43.62813" lon="5.43614">
        <ele>412.69</ele>
        <time>2021-04-18T09:50:44Z</time>
      </trkpt>
      <trkpt lat="43.62803" lon="5.43603">
        <ele>414.66</ele>
        <time>2021-04-18T09:51:03Z</time>
      </trkpt>
      <trkpt lat="43.6279" lon="5.43596">
        <ele>415.56</ele>
        <time>2021-04-18T09:51:22Z</time>
      </trkpt>
      <trkpt lat="43.62772" lon="5.436">
        <ele>416.89</ele>
        <time>2021-04-18T09:51:43Z</time>
      </trkpt>
      <trkpt lat="43.62757" lon="5.43599">
        <ele>418.69</ele>
        <time>2021-04-18T09:52:03Z</time>
      </trkpt>
      <trkpt lat="43.62738" lon="5.43595">
        <ele>419.17</ele>
        <time>2021-04-18T09:52:23Z</time>
      </trkpt>
      <trkpt lat="43.62725" lon="5.43585">
        <ele>420.59</ele>
        <time>2021-04-18T09:52:43Z</time>
      </trkpt>
      <trkpt lat="43.62711" lon="5.43581">
        <ele>422.1</ele>
        <time>2021-04-18T09:53:00Z</time>
      </trkpt>
      <trkpt lat="43.627" lon="5.43578">
        <ele>423.26</ele>
        <time>2021-04-18T09:53:15Z</time>
      </trkpt>
      <trkpt lat="43.62686" lon="5.43571">
        <ele>425.21</ele>
        <time>2021-04-18T09:53:36Z</time>
      </trkpt>
      <trkpt lat="43.62673" lon="5.43567">
        <ele>426.56</ele>
        <time>2021-04-18T09:53:57Z</time>
      </trkpt>
      <trkpt lat="43.62656" lon="5.43565">
        <ele>429.21</ele>
        <time>2021-04-18T09:54:20Z</time>
      </trkpt>
      <trkpt lat="43.62643" lon="5.4356">
        <ele>430.93</ele>
        <time>2021-04-18T09:54:40Z</time>
      </trkpt>
      <trkpt lat="43.62629" lon="5.43559">
        <ele>433.08</ele>
        <time>2021-04-18T09:55:03Z</time>
      </trkpt>
      <trkpt lat="43.62619" lon="5.43558">
        <ele>434.84</ele>
        <time>2021-04-18T09:55:20Z</time>
      </trkpt>
      <trkpt lat="43.62611" lon="5.43562">
        <ele>435.26</ele>
        <time>2021-04-18T09:55:37Z</time>
      </trkpt>
      <trkpt lat="43.626" lon="5.4356">
        <ele>436.19</ele>
        <time>2021-04-18T09:55:57Z</time>
      </trkpt>
      <trkpt lat="43.626" lon="5.43559">
        <ele>436.46</ele>
        <time>2021-04-18T09:56:06Z</time>
      </trkpt>
      <trkpt lat="43.62601" lon="5.43556">
        <ele>434.8</ele>
        <time>2021-04-18T09:56:30Z</time>
      </trkpt>
      <trkpt lat="43.62599" lon="5.43549">
        <ele>435.43</ele>
        <time>2021-04-18T09:57:05Z</time>
      </trkpt>
      <trkpt lat="43.62597" lon="5.43549">
        <ele>432.77</ele>
        <time>2021-04-18T09:57:09Z</time>
      </trkpt>
      <trkpt lat="43.62598" lon="5.43548">
        <ele>438.47</ele>
        <time>2021-04-18T09:57:10Z</time>
      </trkpt>
      <trkpt lat="43.62597" lon="5.43548">
        <ele>437.07</ele>
        <time>2021-04-18T09:57:11Z</time>
      </trkpt>
      <trkpt lat="43.62597" lon="5.43548">
        <ele>435.05</ele>
        <time>2021-04-18T09:57:13Z</time>
      </trkpt>
      <trkpt lat="43.62595" lon="5.43548">
        <ele>434.88</ele>
        <time>2021-04-18T09:57:39Z</time>
      </trkpt>
      <trkpt lat="43.62598" lon="5.43551">
        <ele>435.12</ele>
        <time>2021-04-18T09:58:12Z</time>
      </trkpt>
      <trkpt lat="43.62598" lon="5.4355">
        <ele>435.49</ele>
        <time>2021-04-18T09:58:38Z</time>
      </trkpt>
      <trkpt lat="43.62596" lon="5.43543">
        <ele>435.09</ele>
        <time>2021-04-18T09:59:21Z</time>
      </trkpt>
      <trkpt lat="43.62595" lon="5.43544">
        <ele>435.76</ele>
        <time>2021-04-18T10:00:05Z</time>
      </trkpt>
      <trkpt lat="43.62596" lon="5.43549">
        <ele>435.97</ele>
        <time>2021-04-18T10:00:50Z</time>
      </trkpt>
      <trkpt lat="43.62598" lon="5.43553">
        <ele>435.73</ele>
        <time>2021-04-18T10:01:30Z</time>
      </trkpt>
      <trkpt lat="43.62592" lon="5.43551">
        <ele>435.87</ele>
        <time>2021-04-18T10:01:47Z</time>
      </trkpt>
      <trkpt lat="43.62577" lon="5.43546">
        <ele>438.05</ele>
        <time>2021-04-18T10:02:06Z</time>
      </trkpt>
      <trkpt lat="43.6256" lon="5.43545">
        <ele>440.3</ele>
        <time>2021-04-18T10:02:26Z</time>
      </trkpt>
      <trkpt lat="43.62544" lon="5.43546">
        <ele>441.43</ele>
        <time>2021-04-18T10:02:44Z</time>
      </trkpt>
      <trkpt lat="43.62534" lon="5.43541">
        <ele>442.86</ele>
        <time>2021-04-18T10:03:03Z</time>
      </trkpt>
      <trkpt lat="43.62518" lon="5.43537">
        <ele>443.59</ele>
        <time>2021-04-18T10:03:21Z</time>
      </trkpt>
      <trkpt lat="43.62511" lon="5.43538">
        <ele>443.98</ele>
        <time>2021-04-18T10:03:37Z</time>
      </trkpt>
      <trkpt lat="43.62499" lon="5.43541">
        <ele>445.77</ele>
        <time>2021-04-18T10:03:55Z</time>
      </trkpt>
      <trkpt lat="43.6249" lon="5.43546">
        <ele>446.45</ele>
        <time>2021-04-18T10:04:14Z</time>
      </trkpt>
      <trkpt lat="43.62487" lon="5.43557">
        <ele>446.1</ele>
        <time>2021-04-18T10:04:27Z</time>
      </trkpt>
      <trkpt lat="43.62491" lon="5.43569">
        <ele>446.76</ele>
        <time>2021-04-18T10:04:43Z</time>
      </trkpt>
      <trkpt lat="43.62497" lon="5.43579">
        <ele>447.04</ele>
        <time>2021-04-18T10:04:58Z</time>
      </trkpt>
      <trkpt lat="43.62497" lon="5.43581">
        <ele>447.22</ele>
        <time>2021-04-18T10:04:59Z</time>
      </trkpt>
      <trkpt lat="43.625" lon="5.4361">
        <ele>447.42</ele>
        <time>2021-04-18T10:05:20Z</time>
      </trkpt>
      <trkpt lat="43.62499" lon="5.4364">
        <ele>447.21</ele>
        <time>2021-04-18T10:05:42Z</time>
      </trkpt>
      <trkpt lat="43.62494" lon="5.43665">
        <ele>446.53</ele>
        <time>2021-04-18T10:06:02Z</time>
      </trkpt>
      <trkpt lat="43.62487" lon="5.43687">
        <ele>446.29</ele>
        <time>2021-04-18T10:06:21Z</time>
      </trkpt>
      <trkpt lat="43.62485" lon="5.43707">
        <ele>445.21</ele>
        <time>2021-04-18T10:06:39Z</time>
      </trkpt>
      <trkpt lat="43.62489" lon="5.43719">
        <ele>445.43</ele>
        <time>2021-04-18T10:06:54Z</time>
      </trkpt>
      <trkpt lat="43.62499" lon="5.43719">
        <ele>447.36</ele>
        <time>2021-04-18T10:07:10Z</time>
      </trkpt>
      <trkpt lat="43.62495" lon="5.43727">
        <ele>446.16</ele>
        <time>2021-04-18T10:07:24Z</time>
      </trkpt>
      <trkpt lat="43.62498" lon="5.43745">
        <ele>446.18</ele>
        <time>2021-04-18T10:07:38Z</time>
      </trkpt>
      <trkpt lat="43.62499" lon="5.43761">
        <ele>446.75</ele>
        <time>2021-04-18T10:07:58Z</time>
      </trkpt>
      <trkpt lat="43.62498" lon="5.43763">
        <ele>447.11</ele>
        <time>2021-04-18T10:08:27Z</time>
      </trkpt>
      <trkpt lat="43.625" lon="5.43767">
        <ele>447.21</ele>
        <time>2021-04-18T10:09:08Z</time>
      </trkpt>
      <trkpt lat="43.62501" lon="5.43775">
        <ele>448.16</ele>
        <time>2021-04-18T10:09:50Z</time>
      </trkpt>
      <trkpt lat="43.625" lon="5.43777">
        <ele>447.5</ele>
        <time>2021-04-18T10:09:52Z</time>
      </trkpt>
      <trkpt lat="43.625" lon="5.43781">
        <ele>447.54</ele>
        <time>2021-04-18T10:10:08Z</time>
      </trkpt>
      <trkpt lat="43.625" lon="5.43793">
        <ele>447.56</ele>
        <time>2021-04-18T10:10:27Z</time>
      </trkpt>
      <trkpt lat="43.62501" lon="5.43803">
        <ele>447.61</ele>
        <time>2021-04-18T10:10:35Z</time>
      </trkpt>
      <trkpt lat="43.62503" lon="5.43831">
        <ele>447.75</ele>
        <time>2021-04-18T10:10:55Z</time>
      </trkpt>
      <trkpt lat="43.62505" lon="5.43849">
        <ele>446.75</ele>
        <time>2021-04-18T10:11:08Z</time>
      </trkpt>
      <trkpt lat="43.62506" lon="5.43852">
        <ele>446.33</ele>
        <time>2021-04-18T10:11:10Z</time>
      </trkpt>
      <trkpt lat="43.6251" lon="5.43883">
        <ele>445.46</ele>
        <time>2021-04-18T10:11:32Z</time>
      </trkpt>
      <trkpt lat="43.62513" lon="5.43911">
        <ele>445.17</ele>
        <time>2021-04-18T10:11:51Z</time>
      </trkpt>
      <trkpt lat="43.62514" lon="5.43914">
        <ele>444.65</ele>
        <time>2021-04-18T10:11:53Z</time>
      </trkpt>
      <trkpt lat="43.62517" lon="5.43935">
        <ele>444.8</ele>
        <time>2021-04-18T10:12:09Z</time>
      </trkpt>
      <trkpt lat="43.62518" lon="5.43958">
        <ele>445.05</ele>
        <time>2021-04-18T10:12:25Z</time>
      </trkpt>
      <trkpt lat="43.62515" lon="5.43979">
        <ele>445.81</ele>
        <time>2021-04-18T10:12:45Z</time>
      </trkpt>
      <trkpt lat="43.62513" lon="5.43984">
        <ele>445.63</ele>
        <time>2021-04-18T10:13:05Z</time>
      </trkpt>
      <trkpt lat="43.62519" lon="5.43987">
        <ele>446.34</ele>
        <time>2021-04-18T10:13:38Z</time>
      </trkpt>
      <trkpt lat="43.62513" lon="5.43986">
        <ele>445.43</ele>
        <time>2021-04-18T10:13:52Z</time>
      </trkpt>
      <trkpt lat="43.62495" lon="5.44003">
        <ele>443.93</ele>
        <time>2021-04-18T10:14:13Z</time>
      </trkpt>
      <trkpt lat="43.62484" lon="5.44013">
        <ele>443.37</ele>
        <time>2021-04-18T10:14:27Z</time>
      </trkpt>
      <trkpt lat="43.62471" lon="5.44023">
        <ele>442.53</ele>
        <time>2021-04-18T10:14:43Z</time>
      </trkpt>
      <trkpt lat="43.62458" lon="5.44033">
        <ele>441.25</ele>
        <time>2021-04-18T10:14:58Z</time>
      </trkpt>
      <trkpt lat="43.62446" lon="5.4404">
        <ele>439.94</ele>
        <time>2021-04-18T10:15:12Z</time>
      </trkpt>
      <trkpt lat="43.62437" lon="5.44048">
        <ele>439.6</ele>
        <time>2021-04-18T10:15:25Z</time>
      </trkpt>
      <trkpt lat="43.62426" lon="5.44064">
        <ele>439.29</ele>
        <time>2021-04-18T10:15:42Z</time>
      </trkpt>
      <trkpt lat="43.6242" lon="5.44063">
        <ele>438.95</ele>
        <time>2021-04-18T10:16:05Z</time>
      </trkpt>
      <trkpt lat="43.62404" lon="5.44067">
        <ele>436.99</ele>
        <time>2021-04-18T10:16:24Z</time>
      </trkpt>
      <trkpt lat="43.62392" lon="5.44069">
        <ele>435.69</ele>
        <time>2021-04-18T10:16:37Z</time>
      </trkpt>
      <trkpt lat="43.62378" lon="5.44062">
        <ele>434.68</ele>
        <time>2021-04-18T10:16:55Z</time>
      </trkpt>
      <trkpt lat="43.62377" lon="5.44062">
        <ele>434.61</ele>
        <time>2021-04-18T10:16:56Z</time>
      </trkpt>
      <trkpt lat="43.62363" lon="5.44066">
        <ele>433.81</ele>
        <time>2021-04-18T10:17:12Z</time>
      </trkpt>
      <trkpt lat="43.62347" lon="5.44073">
        <ele>433.69</ele>
        <time>2021-04-18T10:17:29Z</time>
      </trkpt>
      <trkpt lat="43.62333" lon="5.4408">
        <ele>434.28</ele>
        <time>2021-04-18T10:17:44Z</time>
      </trkpt>
      <trkpt lat="43.62322" lon="5.44087">
        <ele>436.33</ele>
        <time>2021-04-18T10:17:56Z</time>
      </trkpt>
      <trkpt lat="43.62309" lon="5.44093">
        <ele>438.14</ele>
        <time>2021-04-18T10:18:13Z</time>
      </trkpt>
      <trkpt lat="43.62296" lon="5.44098">
        <ele>439.74</ele>
        <time>2021-04-18T10:18:31Z</time>
      </trkpt>
      <trkpt lat="43.62281" lon="5.44099">
        <ele>441.76</ele>
        <time>2021-04-18T10:18:52Z</time>
      </trkpt>
      <trkpt lat="43.62268" lon="5.44102">
        <ele>442.69</ele>
        <time>2021-04-18T10:19:08Z</time>
      </trkpt>
      <trkpt lat="43.62259" lon="5.44106">
        <ele>443.71</ele>
        <time>2021-04-18T10:19:25Z</time>
      </trkpt>
      <trkpt lat="43.62246" lon="5.44112">
        <ele>444.07</ele>
        <time>2021-04-18T10:19:40Z</time>
      </trkpt>
      <trkpt lat="43.62231" lon="5.44122">
        <ele>444.89</ele>
        <time>2021-04-18T10:20:00Z</time>
      </trkpt>
      <trkpt lat="43.62222" lon="5.4413">
        <ele>445.58</ele>
        <time>2021-04-18T10:20:14Z</time>
      </trkpt>
      <trkpt lat="43.62208" lon="5.44135">
        <ele>444.93</ele>
        <time>2021-04-18T10:20:33Z</time>
      </trkpt>
      <trkpt lat="43.622" lon="5.44135">
        <ele>445.08</ele>
        <time>2021-04-18T10:20:49Z</time>
      </trkpt>
      <trkpt lat="43.62191" lon="5.44139">
        <ele>445.41</ele>
        <time>2021-04-18T10:21:06Z</time>
      </trkpt>
      <trkpt lat="43.62188" lon="5.44141">
        <ele>444.98</ele>
        <time>2021-04-18T10:21:25Z</time>
      </trkpt>
      <trkpt lat="43.62187" lon="5.44141">
        <ele>445.04</ele>
        <time>2021-04-18T10:21:35Z</time>
      </trkpt>
      <trkpt lat="43.62178" lon="5.4413">
        <ele>445.39</ele>
        <time>2021-04-18T10:21:50Z</time>
      </trkpt>
      <trkpt lat="43.62172" lon="5.44119">
        <ele>443.55</ele>
        <time>2021-04-18T10:22:07Z</time>
      </trkpt>
      <trkpt lat="43.62171" lon="5.44116">
        <ele>446.08</ele>
        <time>2021-04-18T10:22:09Z</time>
      </trkpt>
      <trkpt lat="43.62169" lon="5.44097">
        <ele>441.38</ele>
        <time>2021-04-18T10:22:24Z</time>
      </trkpt>
      <trkpt lat="43.62168" lon="5.4409">
        <ele>440.84</ele>
        <time>2021-04-18T10:22:30Z</time>
      </trkpt>
      <trkpt lat="43.62165" lon="5.44062">
        <ele>441.08</ele>
        <time>2021-04-18T10:22:50Z</time>
      </trkpt>
      <trkpt lat="43.62162" lon="5.44034">
        <ele>442.48</ele>
        <time>2021-04-18T10:23:09Z</time>
      </trkpt>
      <trkpt lat="43.62158" lon="5.4401">
        <ele>444.14</ele>
        <time>2021-04-18T10:23:28Z</time>
      </trkpt>
      <trkpt lat="43.62156" lon="5.43987">
        <ele>444.53</ele>
        <time>2021-04-18T10:23:45Z</time>
      </trkpt>
      <trkpt lat="43.62148" lon="5.4395">
        <ele>444.27</ele>
        <time>2021-04-18T10:24:12Z</time>
      </trkpt>
      <trkpt lat="43.62146" lon="5.4394">
        <ele>444.5</ele>
        <time>2021-04-18T10:24:30Z</time>
      </trkpt>
      <trkpt lat="43.62143" lon="5.43911">
        <ele>442.31</ele>
        <time>2021-04-18T10:24:52Z</time>
      </trkpt>
      <trkpt lat="43.6214" lon="5.43892">
        <ele>440.72</ele>
        <time>2021-04-18T10:25:07Z</time>
      </trkpt>
      <trkpt lat="43.62134" lon="5.43863">
        <ele>438.67</ele>
        <time>2021-04-18T10:25:28Z</time>
      </trkpt>
      <trkpt lat="43.62134" lon="5.4383">
        <ele>439.3</ele>
        <time>2021-04-18T10:25:50Z</time>
      </trkpt>
      <trkpt lat="43.62134" lon="5.43814">
        <ele>439.1</ele>
        <time>2021-04-18T10:26:01Z</time>
      </trkpt>
      <trkpt lat="43.62134" lon="5.43811">
        <ele>439.98</ele>
        <time>2021-04-18T10:26:03Z</time>
      </trkpt>
      <trkpt lat="43.62131" lon="5.4378">
        <ele>439.82</ele>
        <time>2021-04-18T10:26:24Z</time>
      </trkpt>
      <trkpt lat="43.62129" lon="5.43763">
        <ele>439.53</ele>
        <time>2021-04-18T10:26:36Z</time>
      </trkpt>
      <trkpt lat="43.62125" lon="5.4373">
        <ele>440.39</ele>
        <time>2021-04-18T10:26:59Z</time>
      </trkpt>
      <trkpt lat="43.62121" lon="5.43703">
        <ele>440.69</ele>
        <time>2021-04-18T10:27:18Z</time>
      </trkpt>
      <trkpt lat="43.6211" lon="5.4368">
        <ele>442.05</ele>
        <time>2021-04-18T10:27:37Z</time>
      </trkpt>
      <trkpt lat="43.62103" lon="5.43655">
        <ele>441.73</ele>
        <time>2021-04-18T10:27:56Z</time>
      </trkpt>
      <trkpt lat="43.62103" lon="5.43624">
        <ele>441.61</ele>
        <time>2021-04-18T10:28:17Z</time>
      </trkpt>
      <trkpt lat="43.62105" lon="5.43593">
        <ele>441.32</ele>
        <time>2021-04-18T10:28:38Z</time>
      </trkpt>
      <trkpt lat="43.62106" lon="5.43565">
        <ele>441.72</ele>
        <time>2021-04-18T10:28:59Z</time>
      </trkpt>
      <trkpt lat="43.62109" lon="5.43543">
        <ele>442.19</ele>
        <time>2021-04-18T10:29:17Z</time>
      </trkpt>
      <trkpt lat="43.6211" lon="5.43527">
        <ele>441.4</ele>
        <time>2021-04-18T10:29:35Z</time>
      </trkpt>
      <trkpt lat="43.62102" lon="5.43511">
        <ele>442.19</ele>
        <time>2021-04-18T10:29:54Z</time>
      </trkpt>
      <trkpt lat="43.62092" lon="5.43503">
        <ele>442.05</ele>
        <time>2021-04-18T10:30:22Z</time>
      </trkpt>
      <trkpt lat="43.6209" lon="5.43501">
        <ele>441.68</ele>
        <time>2021-04-18T10:30:43Z</time>
      </trkpt>
      <trkpt lat="43.62089" lon="5.43498">
        <ele>441.71</ele>
        <time>2021-04-18T10:31:31Z</time>
      </trkpt>
      <trkpt lat="43.62087" lon="5.43485">
        <ele>441.31</ele>
        <time>2021-04-18T10:31:47Z</time>
      </trkpt>
      <trkpt lat="43.62085" lon="5.43463">
        <ele>440.52</ele>
        <time>2021-04-18T10:32:04Z</time>
      </trkpt>
      <trkpt lat="43.62081" lon="5.43443">
        <ele>440.36</ele>
        <time>2021-04-18T10:32:21Z</time>
      </trkpt>
      <trkpt lat="43.62077" lon="5.43418">
        <ele>440.06</ele>
        <time>2021-04-18T10:32:39Z</time>
      </trkpt>
      <trkpt lat="43.62075" lon="5.43403">
        <ele>439.41</ele>
        <time>2021-04-18T10:32:56Z</time>
      </trkpt>
      <trkpt lat="43.6207" lon="5.43399">
        <ele>439.52</ele>
        <time>2021-04-18T10:33:09Z</time>
      </trkpt>
      <trkpt lat="43.6206" lon="5.43396">
        <ele>438.8</ele>
        <time>2021-04-18T10:33:25Z</time>
      </trkpt>
      <trkpt lat="43.6206" lon="5.43408">
        <ele>438.99</ele>
        <time>2021-04-18T10:33:41Z</time>
      </trkpt>
      <trkpt lat="43.62059" lon="5.43392">
        <ele>438.7</ele>
        <time>2021-04-18T10:33:56Z</time>
      </trkpt>
      <trkpt lat="43.62057" lon="5.4338">
        <ele>438.61</ele>
        <time>2021-04-18T10:34:15Z</time>
      </trkpt>
      <trkpt lat="43.62054" lon="5.43364">
        <ele>438.44</ele>
        <time>2021-04-18T10:34:36Z</time>
      </trkpt>
      <trkpt lat="43.62052" lon="5.43346">
        <ele>438.05</ele>
        <time>2021-04-18T10:34:52Z</time>
      </trkpt>
      <trkpt lat="43.62048" lon="5.43326">
        <ele>437.41</ele>
        <time>2021-04-18T10:35:09Z</time>
      </trkpt>
      <trkpt lat="43.62046" lon="5.43306">
        <ele>436.99</ele>
        <time>2021-04-18T10:35:24Z</time>
      </trkpt>
      <trkpt lat="43.62042" lon="5.43289">
        <ele>436.08</ele>
        <time>2021-04-18T10:35:39Z</time>
      </trkpt>
      <trkpt lat="43.62038" lon="5.43266">
        <ele>435.72</ele>
        <time>2021-04-18T10:35:56Z</time>
      </trkpt>
      <trkpt lat="43.62035" lon="5.4324">
        <ele>434.56</ele>
        <time>2021-04-18T10:36:13Z</time>
      </trkpt>
      <trkpt lat="43.62031" lon="5.43217">
        <ele>436.95</ele>
        <time>2021-04-18T10:36:31Z</time>
      </trkpt>
      <trkpt lat="43.62026" lon="5.43196">
        <ele>434.78</ele>
        <time>2021-04-18T10:36:50Z</time>
      </trkpt>
      <trkpt lat="43.62027" lon="5.43181">
        <ele>434.69</ele>
        <time>2021-04-18T10:37:05Z</time>
      </trkpt>
      <trkpt lat="43.62027" lon="5.43178">
        <ele>434.67</ele>
        <time>2021-04-18T10:37:07Z</time>
      </trkpt>
      <trkpt lat="43.62024" lon="5.43157">
        <ele>434.37</ele>
        <time>2021-04-18T10:37:23Z</time>
      </trkpt>
      <trkpt lat="43.62027" lon="5.43139">
        <ele>434.56</ele>
        <time>2021-04-18T10:37:39Z</time>
      </trkpt>
      <trkpt lat="43.6203" lon="5.43135">
        <ele>434.63</ele>
        <time>2021-04-18T10:37:43Z</time>
      </trkpt>
      <trkpt lat="43.62038" lon="5.43112">
        <ele>434.54</ele>
        <time>2021-04-18T10:38:01Z</time>
      </trkpt>
      <trkpt lat="43.62042" lon="5.4309">
        <ele>434.72</ele>
        <time>2021-04-18T10:38:20Z</time>
      </trkpt>
      <trkpt lat="43.62046" lon="5.43067">
        <ele>435.04</ele>
        <time>2021-04-18T10:38:39Z</time>
      </trkpt>
      <trkpt lat="43.6205" lon="5.43045">
        <ele>435.15</ele>
        <time>2021-04-18T10:38:55Z</time>
      </trkpt>
      <trkpt lat="43.62051" lon="5.43027">
        <ele>436.04</ele>
        <time>2021-04-18T10:39:12Z</time>
      </trkpt>
      <trkpt lat="43.62039" lon="5.43012">
        <ele>435.49</ele>
        <time>2021-04-18T10:39:28Z</time>
      </trkpt>
      <trkpt lat="43.62036" lon="5.43009">
        <ele>435.43</ele>
        <time>2021-04-18T10:39:32Z</time>
      </trkpt>
      <trkpt lat="43.62021" lon="5.43001">
        <ele>435.67</ele>
        <time>2021-04-18T10:39:48Z</time>
      </trkpt>
      <trkpt lat="43.62006" lon="5.43007">
        <ele>434.56</ele>
        <time>2021-04-18T10:40:06Z</time>
      </trkpt>
      <trkpt lat="43.61996" lon="5.43006">
        <ele>434.43</ele>
        <time>2021-04-18T10:40:24Z</time>
      </trkpt>
      <trkpt lat="43.61986" lon="5.43008">
        <ele>434.7</ele>
        <time>2021-04-18T10:40:42Z</time>
      </trkpt>
      <trkpt lat="43.61974" lon="5.43005">
        <ele>433.54</ele>
        <time>2021-04-18T10:41:06Z</time>
      </trkpt>
      <trkpt lat="43.61972" lon="5.43">
        <ele>433.89</ele>
        <time>2021-04-18T10:41:28Z</time>
      </trkpt>
      <trkpt lat="43.61973" lon="5.42986">
        <ele>433.96</ele>
        <time>2021-04-18T10:41:45Z</time>
      </trkpt>
      <trkpt lat="43.61972" lon="5.42984">
        <ele>433.73</ele>
        <time>2021-04-18T10:41:55Z</time>
      </trkpt>
      <trkpt lat="43.61972" lon="5.43002">
        <ele>433.93</ele>
        <time>2021-04-18T10:42:13Z</time>
      </trkpt>
      <trkpt lat="43.61972" lon="5.43009">
        <ele>433.83</ele>
        <time>2021-04-18T10:42:36Z</time>
      </trkpt>
      <trkpt lat="43.61973" lon="5.43022">
        <ele>433.83</ele>
        <time>2021-04-18T10:42:53Z</time>
      </trkpt>
      <trkpt lat="43.61976" lon="5.43041">
        <ele>433.73</ele>
        <time>2021-04-18T10:43:12Z</time>
      </trkpt>
      <trkpt lat="43.61978" lon="5.43047">
        <ele>434.21</ele>
        <time>2021-04-18T10:43:27Z</time>
      </trkpt>
      <trkpt lat="43.61977" lon="5.43054">
        <ele>434.01</ele>
        <time>2021-04-18T10:43:41Z</time>
      </trkpt>
      <trkpt lat="43.61971" lon="5.43071">
        <ele>433.06</ele>
        <time>2021-04-18T10:43:58Z</time>
      </trkpt>
      <trkpt lat="43.61969" lon="5.43076">
        <ele>433.28</ele>
        <time>2021-04-18T10:44:01Z</time>
      </trkpt>
      <trkpt lat="43.61966" lon="5.43101">
        <ele>433.4</ele>
        <time>2021-04-18T10:44:19Z</time>
      </trkpt>
      <trkpt lat="43.61966" lon="5.4311">
        <ele>433.29</ele>
        <time>2021-04-18T10:44:25Z</time>
      </trkpt>
      <trkpt lat="43.61969" lon="5.43126">
        <ele>433.27</ele>
        <time>2021-04-18T10:44:39Z</time>
      </trkpt>
      <trkpt lat="43.61975" lon="5.43138">
        <ele>434.01</ele>
        <time>2021-04-18T10:44:49Z</time>
      </trkpt>
      <trkpt lat="43.61987" lon="5.43146">
        <ele>433.45</ele>
        <time>2021-04-18T10:45:05Z</time>
      </trkpt>
      <trkpt lat="43.62008" lon="5.43148">
        <ele>434.68</ele>
        <time>2021-04-18T10:45:27Z</time>
      </trkpt>
      <trkpt lat="43.62016" lon="5.43151">
        <ele>434.44</ele>
        <time>2021-04-18T10:45:43Z</time>
      </trkpt>
      <trkpt lat="43.62022" lon="5.43157">
        <ele>434.71</ele>
        <time>2021-04-18T10:45:56Z</time>
      </trkpt>
      <trkpt lat="43.62029" lon="5.43155">
        <ele>434.78</ele>
        <time>2021-04-18T10:46:13Z</time>
      </trkpt>
      <trkpt lat="43.62027" lon="5.4315">
        <ele>435.38</ele>
        <time>2021-04-18T10:46:31Z</time>
      </trkpt>
      <trkpt lat="43.62021" lon="5.43157">
        <ele>434.73</ele>
        <time>2021-04-18T10:46:44Z</time>
      </trkpt>
      <trkpt lat="43.62009" lon="5.43151">
        <ele>434.64</ele>
        <time>2021-04-18T10:47:01Z</time>
      </trkpt>
      <trkpt lat="43.61992" lon="5.43148">
        <ele>434.46</ele>
        <time>2021-04-18T10:47:18Z</time>
      </trkpt>
      <trkpt lat="43.61991" lon="5.43148">
        <ele>434.17</ele>
        <time>2021-04-18T10:47:19Z</time>
      </trkpt>
      <trkpt lat="43.61973" lon="5.43141">
        <ele>433.71</ele>
        <time>2021-04-18T10:47:37Z</time>
      </trkpt>
      <trkpt lat="43.61967" lon="5.43134">
        <ele>433.64</ele>
        <time>2021-04-18T10:47:46Z</time>
      </trkpt>
      <trkpt lat="43.61966" lon="5.43113">
        <ele>433.42</ele>
        <time>2021-04-18T10:48:02Z</time>
      </trkpt>
      <trkpt lat="43.61969" lon="5.43103">
        <ele>433.46</ele>
        <time>2021-04-18T10:48:18Z</time>
      </trkpt>
      <trkpt lat="43.61965" lon="5.43109">
        <ele>433.19</ele>
        <time>2021-04-18T10:48:33Z</time>
      </trkpt>
      <trkpt lat="43.61965" lon="5.43116">
        <ele>433.69</ele>
        <time>2021-04-18T10:48:38Z</time>
      </trkpt>
      <trkpt lat="43.61967" lon="5.43129">
        <ele>433.47</ele>
        <time>2021-04-18T10:48:45Z</time>
      </trkpt>
      <trkpt lat="43.61966" lon="5.4314">
        <ele>433.39</ele>
        <time>2021-04-18T10:48:53Z</time>
      </trkpt>
      <trkpt lat="43.6196" lon="5.43159">
        <ele>432.73</ele>
        <time>2021-04-18T10:49:09Z</time>
      </trkpt>
      <trkpt lat="43.61952" lon="5.43169">
        <ele>432.03</ele>
        <time>2021-04-18T10:49:18Z</time>
      </trkpt>
      <trkpt lat="43.61931" lon="5.43173">
        <ele>431</ele>
        <time>2021-04-18T10:49:38Z</time>
      </trkpt>
      <trkpt lat="43.61913" lon="5.43174">
        <ele>429.39</ele>
        <time>2021-04-18T10:49:56Z</time>
      </trkpt>
      <trkpt lat="43.61898" lon="5.43176">
        <ele>428.13</ele>
        <time>2021-04-18T10:50:12Z</time>
      </trkpt>
      <trkpt lat="43.61881" lon="5.4318">
        <ele>428</ele>
        <time>2021-04-18T10:50:29Z</time>
      </trkpt>
      <trkpt lat="43.61868" lon="5.43182">
        <ele>426.85</ele>
        <time>2021-04-18T10:50:42Z</time>
      </trkpt>
      <trkpt lat="43.61847" lon="5.43182">
        <ele>425.5</ele>
        <time>2021-04-18T10:51:00Z</time>
      </trkpt>
      <trkpt lat="43.61827" lon="5.43185">
        <ele>424.54</ele>
        <time>2021-04-18T10:51:18Z</time>
      </trkpt>
      <trkpt lat="43.61806" lon="5.43189">
        <ele>424.79</ele>
        <time>2021-04-18T10:51:38Z</time>
      </trkpt>
      <trkpt lat="43.61788" lon="5.43192">
        <ele>423.76</ele>
        <time>2021-04-18T10:51:57Z</time>
      </trkpt>
      <trkpt lat="43.61778" lon="5.43193">
        <ele>423.22</ele>
        <time>2021-04-18T10:52:14Z</time>
      </trkpt>
      <trkpt lat="43.61765" lon="5.43184">
        <ele>423.95</ele>
        <time>2021-04-18T10:52:32Z</time>
      </trkpt>
      <trkpt lat="43.61759" lon="5.43176">
        <ele>423.94</ele>
        <time>2021-04-18T10:52:50Z</time>
      </trkpt>
      <trkpt lat="43.61767" lon="5.43169">
        <ele>424.2</ele>
        <time>2021-04-18T10:53:09Z</time>
      </trkpt>
      <trkpt lat="43.61765" lon="5.43169">
        <ele>423.96</ele>
        <time>2021-04-18T10:53:21Z</time>
      </trkpt>
      <trkpt lat="43.61754" lon="5.43182">
        <ele>422.76</ele>
        <time>2021-04-18T10:53:37Z</time>
      </trkpt>
      <trkpt lat="43.61743" lon="5.4319">
        <ele>422.14</ele>
        <time>2021-04-18T10:53:50Z</time>
      </trkpt>
      <trkpt lat="43.61731" lon="5.4319">
        <ele>421.08</ele>
        <time>2021-04-18T10:54:06Z</time>
      </trkpt>
      <trkpt lat="43.61721" lon="5.43191">
        <ele>419.98</ele>
        <time>2021-04-18T10:54:20Z</time>
      </trkpt>
      <trkpt lat="43.61719" lon="5.43188">
        <ele>420.06</ele>
        <time>2021-04-18T10:54:36Z</time>
      </trkpt>
      <trkpt lat="43.61729" lon="5.43189">
        <ele>420.6</ele>
        <time>2021-04-18T10:54:51Z</time>
      </trkpt>
      <trkpt lat="43.61746" lon="5.43189">
        <ele>421.72</ele>
        <time>2021-04-18T10:55:09Z</time>
      </trkpt>
      <trkpt lat="43.61759" lon="5.43186">
        <ele>423.41</ele>
        <time>2021-04-18T10:55:22Z</time>
      </trkpt>
      <trkpt lat="43.61767" lon="5.43186">
        <ele>423.31</ele>
        <time>2021-04-18T10:55:31Z</time>
      </trkpt>
      <trkpt lat="43.61781" lon="5.43193">
        <ele>424.05</ele>
        <time>2021-04-18T10:55:49Z</time>
      </trkpt>
      <trkpt lat="43.61792" lon="5.43192">
        <ele>425.03</ele>
        <time>2021-04-18T10:56:01Z</time>
      </trkpt>
      <trkpt lat="43.61809" lon="5.43188">
        <ele>424.73</ele>
        <time>2021-04-18T10:56:20Z</time>
      </trkpt>
      <trkpt lat="43.61815" lon="5.43188">
        <ele>425.03</ele>
        <time>2021-04-18T10:56:26Z</time>
      </trkpt>
      <trkpt lat="43.61832" lon="5.43182">
        <ele>425.97</ele>
        <time>2021-04-18T10:56:44Z</time>
      </trkpt>
      <trkpt lat="43.61847" lon="5.43182">
        <ele>425.36</ele>
        <time>2021-04-18T10:57:00Z</time>
      </trkpt>
      <trkpt lat="43.61864" lon="5.43179">
        <ele>427.28</ele>
        <time>2021-04-18T10:57:18Z</time>
      </trkpt>
      <trkpt lat="43.61879" lon="5.43179">
        <ele>428.98</ele>
        <time>2021-04-18T10:57:36Z</time>
      </trkpt>
      <trkpt lat="43.61889" lon="5.43177">
        <ele>429.78</ele>
        <time>2021-04-18T10:57:54Z</time>
      </trkpt>
      <trkpt lat="43.61906" lon="5.43173">
        <ele>429.92</ele>
        <time>2021-04-18T10:58:12Z</time>
      </trkpt>
      <trkpt lat="43.61925" lon="5.4317">
        <ele>431.86</ele>
        <time>2021-04-18T10:58:34Z</time>
      </trkpt>
      <trkpt lat="43.61945" lon="5.43165">
        <ele>432.78</ele>
        <time>2021-04-18T10:58:56Z</time>
      </trkpt>
      <trkpt lat="43.61958" lon="5.43163">
        <ele>433.43</ele>
        <time>2021-04-18T10:59:10Z</time>
      </trkpt>
      <trkpt lat="43.61967" lon="5.43149">
        <ele>434.19</ele>
        <time>2021-04-18T10:59:29Z</time>
      </trkpt>
      <trkpt lat="43.61979" lon="5.43144">
        <ele>435</ele>
        <time>2021-04-18T10:59:42Z</time>
      </trkpt>
      <trkpt lat="43.61993" lon="5.43149">
        <ele>435.34</ele>
        <time>2021-04-18T10:59:58Z</time>
      </trkpt>
      <trkpt lat="43.62009" lon="5.4315">
        <ele>436.38</ele>
        <time>2021-04-18T11:00:16Z</time>
      </trkpt>
      <trkpt lat="43.6201" lon="5.43151">
        <ele>436.24</ele>
        <time>2021-04-18T11:00:17Z</time>
      </trkpt>
      <trkpt lat="43.6202" lon="5.43166">
        <ele>436.42</ele>
        <time>2021-04-18T11:00:35Z</time>
      </trkpt>
      <trkpt lat="43.62022" lon="5.43173">
        <ele>436.27</ele>
        <time>2021-04-18T11:00:45Z</time>
      </trkpt>
      <trkpt lat="43.62023" lon="5.43196">
        <ele>436.39</ele>
        <time>2021-04-18T11:01:03Z</time>
      </trkpt>
      <trkpt lat="43.62025" lon="5.43217">
        <ele>436.82</ele>
        <time>2021-04-18T11:01:20Z</time>
      </trkpt>
      <trkpt lat="43.62029" lon="5.43241">
        <ele>436.91</ele>
        <time>2021-04-18T11:01:39Z</time>
      </trkpt>
      <trkpt lat="43.62032" lon="5.43259">
        <ele>437.5</ele>
        <time>2021-04-18T11:01:55Z</time>
      </trkpt>
      <trkpt lat="43.62034" lon="5.43278">
        <ele>437.73</ele>
        <time>2021-04-18T11:02:10Z</time>
      </trkpt>
      <trkpt lat="43.62037" lon="5.43296">
        <ele>437.85</ele>
        <time>2021-04-18T11:02:24Z</time>
      </trkpt>
      <trkpt lat="43.62039" lon="5.43313">
        <ele>438.4</ele>
        <time>2021-04-18T11:02:38Z</time>
      </trkpt>
      <trkpt lat="43.62044" lon="5.43335">
        <ele>438.27</ele>
        <time>2021-04-18T11:02:54Z</time>
      </trkpt>
      <trkpt lat="43.62048" lon="5.43359">
        <ele>439.03</ele>
        <time>2021-04-18T11:03:12Z</time>
      </trkpt>
      <trkpt lat="43.6205" lon="5.43378">
        <ele>439.05</ele>
        <time>2021-04-18T11:03:31Z</time>
      </trkpt>
      <trkpt lat="43.62049" lon="5.43389">
        <ele>439.73</ele>
        <time>2021-04-18T11:03:47Z</time>
      </trkpt>
      <trkpt lat="43.62042" lon="5.43394">
        <ele>439.37</ele>
        <time>2021-04-18T11:04:06Z</time>
      </trkpt>
      <trkpt lat="43.62027" lon="5.43397">
        <ele>438.14</ele>
        <time>2021-04-18T11:04:28Z</time>
      </trkpt>
      <trkpt lat="43.62009" lon="5.43399">
        <ele>437.53</ele>
        <time>2021-04-18T11:04:46Z</time>
      </trkpt>
      <trkpt lat="43.61996" lon="5.43397">
        <ele>437.44</ele>
        <time>2021-04-18T11:05:00Z</time>
      </trkpt>
      <trkpt lat="43.61984" lon="5.43395">
        <ele>436.98</ele>
        <time>2021-04-18T11:05:16Z</time>
      </trkpt>
      <trkpt lat="43.6197" lon="5.43393">
        <ele>436.4</ele>
        <time>2021-04-18T11:05:35Z</time>
      </trkpt>
      <trkpt lat="43.61954" lon="5.43395">
        <ele>435.23</ele>
        <time>2021-04-18T11:05:53Z</time>
      </trkpt>
      <trkpt lat="43.61943" lon="5.43395">
        <ele>434.41</ele>
        <time>2021-04-18T11:06:10Z</time>
      </trkpt>
      <trkpt lat="43.61937" lon="5.43394">
        <ele>434.69</ele>
        <time>2021-04-18T11:06:20Z</time>
      </trkpt>
      <trkpt lat="43.61932" lon="5.43394">
        <ele>434.29</ele>
        <time>2021-04-18T11:06:25Z</time>
      </trkpt>
      <trkpt lat="43.61917" lon="5.43393">
        <ele>432.98</ele>
        <time>2021-04-18T11:06:42Z</time>
      </trkpt>
      <trkpt lat="43.6191" lon="5.43394">
        <ele>433.24</ele>
        <time>2021-04-18T11:06:54Z</time>
      </trkpt>
      <trkpt lat="43.61901" lon="5.43401">
        <ele>433.02</ele>
        <time>2021-04-18T11:07:11Z</time>
      </trkpt>
      <trkpt lat="43.61896" lon="5.43411">
        <ele>432.43</ele>
        <time>2021-04-18T11:07:29Z</time>
      </trkpt>
      <trkpt lat="43.61889" lon="5.43422">
        <ele>432.55</ele>
        <time>2021-04-18T11:07:48Z</time>
      </trkpt>
      <trkpt lat="43.61885" lon="5.43422">
        <ele>432.35</ele>
        <time>2021-04-18T11:08:08Z</time>
      </trkpt>
      <trkpt lat="43.61887" lon="5.4342">
        <ele>432.12</ele>
        <time>2021-04-18T11:08:12Z</time>
      </trkpt>
      <trkpt lat="43.61893" lon="5.43415">
        <ele>432.03</ele>
        <time>2021-04-18T11:08:18Z</time>
      </trkpt>
      <trkpt lat="43.61904" lon="5.43398">
        <ele>432.25</ele>
        <time>2021-04-18T11:08:37Z</time>
      </trkpt>
      <trkpt lat="43.61914" lon="5.43394">
        <ele>432.42</ele>
        <time>2021-04-18T11:08:52Z</time>
      </trkpt>
      <trkpt lat="43.61921" lon="5.43392">
        <ele>433.05</ele>
        <time>2021-04-18T11:09:06Z</time>
      </trkpt>
      <trkpt lat="43.61912" lon="5.43392">
        <ele>432.21</ele>
        <time>2021-04-18T11:09:25Z</time>
      </trkpt>
      <trkpt lat="43.61904" lon="5.43389">
        <ele>432.47</ele>
        <time>2021-04-18T11:09:43Z</time>
      </trkpt>
      <trkpt lat="43.61906" lon="5.43379">
        <ele>430.99</ele>
        <time>2021-04-18T11:09:59Z</time>
      </trkpt>
      <trkpt lat="43.61901" lon="5.43371">
        <ele>429.99</ele>
        <time>2021-04-18T11:10:15Z</time>
      </trkpt>
      <trkpt lat="43.61894" lon="5.43367">
        <ele>430.41</ele>
        <time>2021-04-18T11:10:37Z</time>
      </trkpt>
      <trkpt lat="43.6188" lon="5.43364">
        <ele>430.36</ele>
        <time>2021-04-18T11:10:56Z</time>
      </trkpt>
      <trkpt lat="43.61865" lon="5.43363">
        <ele>430.56</ele>
        <time>2021-04-18T11:11:14Z</time>
      </trkpt>
      <trkpt lat="43.61856" lon="5.43363">
        <ele>430.04</ele>
        <time>2021-04-18T11:11:32Z</time>
      </trkpt>
      <trkpt lat="43.61857" lon="5.43362">
        <ele>430.33</ele>
        <time>2021-04-18T11:11:50Z</time>
      </trkpt>
      <trkpt lat="43.61872" lon="5.43364">
        <ele>429.75</ele>
        <time>2021-04-18T11:12:07Z</time>
      </trkpt>
      <trkpt lat="43.61892" lon="5.4337">
        <ele>430.19</ele>
        <time>2021-04-18T11:12:26Z</time>
      </trkpt>
      <trkpt lat="43.61902" lon="5.43378">
        <ele>430.36</ele>
        <time>2021-04-18T11:12:44Z</time>
      </trkpt>
      <trkpt lat="43.61903" lon="5.43392">
        <ele>431.4</ele>
        <time>2021-04-18T11:13:02Z</time>
      </trkpt>
      <trkpt lat="43.61912" lon="5.43396">
        <ele>431.75</ele>
        <time>2021-04-18T11:13:14Z</time>
      </trkpt>
      <trkpt lat="43.6192" lon="5.43395">
        <ele>432.28</ele>
        <time>2021-04-18T11:13:23Z</time>
      </trkpt>
      <trkpt lat="43.61935" lon="5.43392">
        <ele>433.44</ele>
        <time>2021-04-18T11:13:40Z</time>
      </trkpt>
      <trkpt lat="43.61938" lon="5.43388">
        <ele>433.33</ele>
        <time>2021-04-18T11:13:56Z</time>
      </trkpt>
      <trkpt lat="43.61951" lon="5.43377">
        <ele>433.58</ele>
        <time>2021-04-18T11:14:13Z</time>
      </trkpt>
      <trkpt lat="43.6196" lon="5.43374">
        <ele>433.89</ele>
        <time>2021-04-18T11:14:26Z</time>
      </trkpt>
      <trkpt lat="43.61968" lon="5.43379">
        <ele>434.39</ele>
        <time>2021-04-18T11:14:40Z</time>
      </trkpt>
      <trkpt lat="43.61974" lon="5.43381">
        <ele>434.93</ele>
        <time>2021-04-18T11:14:54Z</time>
      </trkpt>
      <trkpt lat="43.61994" lon="5.43381">
        <ele>435.97</ele>
        <time>2021-04-18T11:15:13Z</time>
      </trkpt>
      <trkpt lat="43.62011" lon="5.43381">
        <ele>436.98</ele>
        <time>2021-04-18T11:15:31Z</time>
      </trkpt>
      <trkpt lat="43.62025" lon="5.43381">
        <ele>437.94</ele>
        <time>2021-04-18T11:15:47Z</time>
      </trkpt>
      <trkpt lat="43.62041" lon="5.43381">
        <ele>437.99</ele>
        <time>2021-04-18T11:16:04Z</time>
      </trkpt>
      <trkpt lat="43.62049" lon="5.43391">
        <ele>439.03</ele>
        <time>2021-04-18T11:16:22Z</time>
      </trkpt>
      <trkpt lat="43.6205" lon="5.43409">
        <ele>440.67</ele>
        <time>2021-04-18T11:16:37Z</time>
      </trkpt>
      <trkpt lat="43.62048" lon="5.43435">
        <ele>440.3</ele>
        <time>2021-04-18T11:16:56Z</time>
      </trkpt>
      <trkpt lat="43.62059" lon="5.43444">
        <ele>441.15</ele>
        <time>2021-04-18T11:17:08Z</time>
      </trkpt>
      <trkpt lat="43.6207" lon="5.43452">
        <ele>441.3</ele>
        <time>2021-04-18T11:17:22Z</time>
      </trkpt>
      <trkpt lat="43.62072" lon="5.43472">
        <ele>441.25</ele>
        <time>2021-04-18T11:17:39Z</time>
      </trkpt>
      <trkpt lat="43.62081" lon="5.43495">
        <ele>442.05</ele>
        <time>2021-04-18T11:17:57Z</time>
      </trkpt>
      <trkpt lat="43.62085" lon="5.43496">
        <ele>442.87</ele>
        <time>2021-04-18T11:18:02Z</time>
      </trkpt>
      <trkpt lat="43.62094" lon="5.43503">
        <ele>442.55</ele>
        <time>2021-04-18T11:18:14Z</time>
      </trkpt>
      <trkpt lat="43.62111" lon="5.43518">
        <ele>442.06</ele>
        <time>2021-04-18T11:18:35Z</time>
      </trkpt>
      <trkpt lat="43.62114" lon="5.4353">
        <ele>441.19</ele>
        <time>2021-04-18T11:18:46Z</time>
      </trkpt>
      <trkpt lat="43.62109" lon="5.43548">
        <ele>442.58</ele>
        <time>2021-04-18T11:19:04Z</time>
      </trkpt>
      <trkpt lat="43.62107" lon="5.43554">
        <ele>440.86</ele>
        <time>2021-04-18T11:19:11Z</time>
      </trkpt>
      <trkpt lat="43.62106" lon="5.43563">
        <ele>441.44</ele>
        <time>2021-04-18T11:19:18Z</time>
      </trkpt>
      <trkpt lat="43.62106" lon="5.43591">
        <ele>441.49</ele>
        <time>2021-04-18T11:19:38Z</time>
      </trkpt>
      <trkpt lat="43.62104" lon="5.43618">
        <ele>441.56</ele>
        <time>2021-04-18T11:19:57Z</time>
      </trkpt>
      <trkpt lat="43.62102" lon="5.43641">
        <ele>441.57</ele>
        <time>2021-04-18T11:20:14Z</time>
      </trkpt>
      <trkpt lat="43.62105" lon="5.43665">
        <ele>441.95</ele>
        <time>2021-04-18T11:20:31Z</time>
      </trkpt>
      <trkpt lat="43.62113" lon="5.43687">
        <ele>442.29</ele>
        <time>2021-04-18T11:20:48Z</time>
      </trkpt>
      <trkpt lat="43.62119" lon="5.43696">
        <ele>441.84</ele>
        <time>2021-04-18T11:20:58Z</time>
      </trkpt>
      <trkpt lat="43.62125" lon="5.43722">
        <ele>441.44</ele>
        <time>2021-04-18T11:21:18Z</time>
      </trkpt>
      <trkpt lat="43.62126" lon="5.43743">
        <ele>440.69</ele>
        <time>2021-04-18T11:21:33Z</time>
      </trkpt>
      <trkpt lat="43.62126" lon="5.43745">
        <ele>440.34</ele>
        <time>2021-04-18T11:21:34Z</time>
      </trkpt>
      <trkpt lat="43.62131" lon="5.43772">
        <ele>440.15</ele>
        <time>2021-04-18T11:21:52Z</time>
      </trkpt>
      <trkpt lat="43.62133" lon="5.43795">
        <ele>440.07</ele>
        <time>2021-04-18T11:22:09Z</time>
      </trkpt>
      <trkpt lat="43.62135" lon="5.43811">
        <ele>439.82</ele>
        <time>2021-04-18T11:22:26Z</time>
      </trkpt>
      <trkpt lat="43.62136" lon="5.43815">
        <ele>439.26</ele>
        <time>2021-04-18T11:22:45Z</time>
      </trkpt>
      <trkpt lat="43.62136" lon="5.43817">
        <ele>439.93</ele>
        <time>2021-04-18T11:22:47Z</time>
      </trkpt>
      <trkpt lat="43.62135" lon="5.43826">
        <ele>439.72</ele>
        <time>2021-04-18T11:22:54Z</time>
      </trkpt>
      <trkpt lat="43.62133" lon="5.43854">
        <ele>439.72</ele>
        <time>2021-04-18T11:23:14Z</time>
      </trkpt>
      <trkpt lat="43.62138" lon="5.43881">
        <ele>440.22</ele>
        <time>2021-04-18T11:23:33Z</time>
      </trkpt>
      <trkpt lat="43.62143" lon="5.43905">
        <ele>441.87</ele>
        <time>2021-04-18T11:23:54Z</time>
      </trkpt>
      <trkpt lat="43.62147" lon="5.43926">
        <ele>444.23</ele>
        <time>2021-04-18T11:24:13Z</time>
      </trkpt>
      <trkpt lat="43.62149" lon="5.43941">
        <ele>444.3</ele>
        <time>2021-04-18T11:24:26Z</time>
      </trkpt>
      <trkpt lat="43.62156" lon="5.43967">
        <ele>445.75</ele>
        <time>2021-04-18T11:24:46Z</time>
      </trkpt>
      <trkpt lat="43.62161" lon="5.43994">
        <ele>445.26</ele>
        <time>2021-04-18T11:25:07Z</time>
      </trkpt>
      <trkpt lat="43.62164" lon="5.44022">
        <ele>443.81</ele>
        <time>2021-04-18T11:25:29Z</time>
      </trkpt>
      <trkpt lat="43.62167" lon="5.44044">
        <ele>442.33</ele>
        <time>2021-04-18T11:25:46Z</time>
      </trkpt>
      <trkpt lat="43.62168" lon="5.44045">
        <ele>442.14</ele>
        <time>2021-04-18T11:25:47Z</time>
      </trkpt>
      <trkpt lat="43.62167" lon="5.44065">
        <ele>440.79</ele>
        <time>2021-04-18T11:26:03Z</time>
      </trkpt>
      <trkpt lat="43.62168" lon="5.44079">
        <ele>441.54</ele>
        <time>2021-04-18T11:26:17Z</time>
      </trkpt>
      <trkpt lat="43.62166" lon="5.44085">
        <ele>441.07</ele>
        <time>2021-04-18T11:26:44Z</time>
      </trkpt>
      <trkpt lat="43.6217" lon="5.44106">
        <ele>444.1</ele>
        <time>2021-04-18T11:27:03Z</time>
      </trkpt>
      <trkpt lat="43.62175" lon="5.44125">
        <ele>445.45</ele>
        <time>2021-04-18T11:27:22Z</time>
      </trkpt>
      <trkpt lat="43.62179" lon="5.44147">
        <ele>446.6</ele>
        <time>2021-04-18T11:27:41Z</time>
      </trkpt>
      <trkpt lat="43.62185" lon="5.44166">
        <ele>445.94</ele>
        <time>2021-04-18T11:27:59Z</time>
      </trkpt>
      <trkpt lat="43.62188" lon="5.4417">
        <ele>445.93</ele>
        <time>2021-04-18T11:28:18Z</time>
      </trkpt>
      <trkpt lat="43.62197" lon="5.4416">
        <ele>445.26</ele>
        <time>2021-04-18T11:28:33Z</time>
      </trkpt>
      <trkpt lat="43.62203" lon="5.44151">
        <ele>445.06</ele>
        <time>2021-04-18T11:28:44Z</time>
      </trkpt>
      <trkpt lat="43.62213" lon="5.44142">
        <ele>444.57</ele>
        <time>2021-04-18T11:28:59Z</time>
      </trkpt>
      <trkpt lat="43.62219" lon="5.44136">
        <ele>444.81</ele>
        <time>2021-04-18T11:29:23Z</time>
      </trkpt>
      <trkpt lat="43.62235" lon="5.44125">
        <ele>444.35</ele>
        <time>2021-04-18T11:29:41Z</time>
      </trkpt>
      <trkpt lat="43.62239" lon="5.4412">
        <ele>444.72</ele>
        <time>2021-04-18T11:29:46Z</time>
      </trkpt>
      <trkpt lat="43.62252" lon="5.44112">
        <ele>444.79</ele>
        <time>2021-04-18T11:30:01Z</time>
      </trkpt>
      <trkpt lat="43.62268" lon="5.44105">
        <ele>442.96</ele>
        <time>2021-04-18T11:30:17Z</time>
      </trkpt>
      <trkpt lat="43.62283" lon="5.441">
        <ele>442.3</ele>
        <time>2021-04-18T11:30:33Z</time>
      </trkpt>
      <trkpt lat="43.62301" lon="5.44096">
        <ele>440.72</ele>
        <time>2021-04-18T11:30:51Z</time>
      </trkpt>
      <trkpt lat="43.62318" lon="5.4409">
        <ele>438.25</ele>
        <time>2021-04-18T11:31:09Z</time>
      </trkpt>
      <trkpt lat="43.62335" lon="5.44082">
        <ele>435.05</ele>
        <time>2021-04-18T11:31:28Z</time>
      </trkpt>
      <trkpt lat="43.62347" lon="5.44075">
        <ele>433.39</ele>
        <time>2021-04-18T11:31:45Z</time>
      </trkpt>
      <trkpt lat="43.62364" lon="5.44067">
        <ele>433.71</ele>
        <time>2021-04-18T11:32:03Z</time>
      </trkpt>
      <trkpt lat="43.62379" lon="5.44063">
        <ele>435.3</ele>
        <time>2021-04-18T11:32:18Z</time>
      </trkpt>
      <trkpt lat="43.62394" lon="5.44066">
        <ele>436.12</ele>
        <time>2021-04-18T11:32:35Z</time>
      </trkpt>
      <trkpt lat="43.62407" lon="5.44073">
        <ele>437.14</ele>
        <time>2021-04-18T11:32:53Z</time>
      </trkpt>
      <trkpt lat="43.62419" lon="5.44068">
        <ele>438.78</ele>
        <time>2021-04-18T11:33:14Z</time>
      </trkpt>
      <trkpt lat="43.6243" lon="5.44063">
        <ele>439.66</ele>
        <time>2021-04-18T11:33:31Z</time>
      </trkpt>
      <trkpt lat="43.62435" lon="5.4406">
        <ele>440.84</ele>
        <time>2021-04-18T11:33:46Z</time>
      </trkpt>
      <trkpt lat="43.62444" lon="5.44058">
        <ele>443.31</ele>
        <time>2021-04-18T11:34:05Z</time>
      </trkpt>
      <trkpt lat="43.62452" lon="5.44056">
        <ele>443.66</ele>
        <time>2021-04-18T11:34:20Z</time>
      </trkpt>
      <trkpt lat="43.62456" lon="5.44056">
        <ele>447.47</ele>
        <time>2021-04-18T11:34:29Z</time>
      </trkpt>
      <trkpt lat="43.62457" lon="5.44057">
        <ele>444.38</ele>
        <time>2021-04-18T11:34:30Z</time>
      </trkpt>
      <trkpt lat="43.62463" lon="5.44069">
        <ele>446.09</ele>
        <time>2021-04-18T11:34:46Z</time>
      </trkpt>
      <trkpt lat="43.62466" lon="5.44081">
        <ele>447.31</ele>
        <time>2021-04-18T11:35:02Z</time>
      </trkpt>
      <trkpt lat="43.62466" lon="5.44097">
        <ele>448.01</ele>
        <time>2021-04-18T11:35:22Z</time>
      </trkpt>
      <trkpt lat="43.62467" lon="5.44099">
        <ele>448.58</ele>
        <time>2021-04-18T11:35:34Z</time>
      </trkpt>
      <trkpt lat="43.62466" lon="5.44113">
        <ele>449.4</ele>
        <time>2021-04-18T11:36:12Z</time>
      </trkpt>
      <trkpt lat="43.62466" lon="5.44114">
        <ele>449.36</ele>
        <time>2021-04-18T11:36:23Z</time>
      </trkpt>
      <trkpt lat="43.62465" lon="5.44117">
        <ele>448.44</ele>
        <time>2021-04-18T11:36:40Z</time>
      </trkpt>
      <trkpt lat="43.62464" lon="5.44119">
        <ele>448.49</ele>
        <time>2021-04-18T11:37:12Z</time>
      </trkpt>
      <trkpt lat="43.62463" lon="5.44118">
        <ele>449.67</ele>
        <time>2021-04-18T11:38:13Z</time>
      </trkpt>
      <trkpt lat="43.62459" lon="5.44129">
        <ele>450.45</ele>
        <time>2021-04-18T11:38:50Z</time>
      </trkpt>
      <trkpt lat="43.62456" lon="5.4415">
        <ele>450.46</ele>
        <time>2021-04-18T11:39:14Z</time>
      </trkpt>
      <trkpt lat="43.62457" lon="5.44163">
        <ele>451.95</ele>
        <time>2021-04-18T11:39:36Z</time>
      </trkpt>
      <trkpt lat="43.62459" lon="5.4418">
        <ele>453.74</ele>
        <time>2021-04-18T11:40:00Z</time>
      </trkpt>
      <trkpt lat="43.62462" lon="5.44207">
        <ele>455.25</ele>
        <time>2021-04-18T11:40:24Z</time>
      </trkpt>
      <trkpt lat="43.62463" lon="5.44225">
        <ele>458.29</ele>
        <time>2021-04-18T11:40:41Z</time>
      </trkpt>
      <trkpt lat="43.62466" lon="5.44249">
        <ele>458.55</ele>
        <time>2021-04-18T11:41:05Z</time>
      </trkpt>
      <trkpt lat="43.62466" lon="5.44249">
        <ele>458.21</ele>
        <time>2021-04-18T11:41:06Z</time>
      </trkpt>
      <trkpt lat="43.62467" lon="5.44252">
        <ele>458.2</ele>
        <time>2021-04-18T11:41:08Z</time>
      </trkpt>
      <trkpt lat="43.6247" lon="5.44261">
        <ele>458.57</ele>
        <time>2021-04-18T11:41:11Z</time>
      </trkpt>
      <trkpt lat="43.62472" lon="5.44266">
        <ele>458.77</ele>
        <time>2021-04-18T11:41:15Z</time>
      </trkpt>
      <trkpt lat="43.62475" lon="5.4429">
        <ele>458.56</ele>
        <time>2021-04-18T11:41:38Z</time>
      </trkpt>
      <trkpt lat="43.62479" lon="5.44311">
        <ele>458.79</ele>
        <time>2021-04-18T11:41:55Z</time>
      </trkpt>
      <trkpt lat="43.6248" lon="5.44312">
        <ele>459.1</ele>
        <time>2021-04-18T11:42:08Z</time>
      </trkpt>
      <trkpt lat="43.62481" lon="5.44314">
        <ele>458.55</ele>
        <time>2021-04-18T11:42:21Z</time>
      </trkpt>
      <trkpt lat="43.62485" lon="5.44322">
        <ele>458.89</ele>
        <time>2021-04-18T11:42:28Z</time>
      </trkpt>
      <trkpt lat="43.62489" lon="5.44344">
        <ele>459.19</ele>
        <time>2021-04-18T11:42:45Z</time>
      </trkpt>
      <trkpt lat="43.6249" lon="5.44348">
        <ele>459.53</ele>
        <time>2021-04-18T11:42:48Z</time>
      </trkpt>
      <trkpt lat="43.62492" lon="5.44374">
        <ele>459.93</ele>
        <time>2021-04-18T11:43:08Z</time>
      </trkpt>
      <trkpt lat="43.62494" lon="5.44389">
        <ele>460.67</ele>
        <time>2021-04-18T11:43:21Z</time>
      </trkpt>
      <trkpt lat="43.62497" lon="5.44406">
        <ele>461.33</ele>
        <time>2021-04-18T11:43:38Z</time>
      </trkpt>
      <trkpt lat="43.625" lon="5.44417">
        <ele>461.69</ele>
        <time>2021-04-18T11:43:48Z</time>
      </trkpt>
      <trkpt lat="43.62501" lon="5.44421">
        <ele>461.85</ele>
        <time>2021-04-18T11:43:51Z</time>
      </trkpt>
      <trkpt lat="43.62502" lon="5.4444">
        <ele>461.25</ele>
        <time>2021-04-18T11:44:08Z</time>
      </trkpt>
      <trkpt lat="43.62501" lon="5.4444">
        <ele>461.24</ele>
        <time>2021-04-18T11:44:15Z</time>
      </trkpt>
      <trkpt lat="43.62501" lon="5.44437">
        <ele>461</ele>
        <time>2021-04-18T11:44:19Z</time>
      </trkpt>
      <trkpt lat="43.625" lon="5.44426">
        <ele>461.18</ele>
        <time>2021-04-18T11:44:34Z</time>
      </trkpt>
      <trkpt lat="43.62499" lon="5.44423">
        <ele>461.04</ele>
        <time>2021-04-18T11:44:36Z</time>
      </trkpt>
      <trkpt lat="43.62495" lon="5.44392">
        <ele>459.6</ele>
        <time>2021-04-18T11:44:57Z</time>
      </trkpt>
      <trkpt lat="43.62488" lon="5.4436">
        <ele>458.59</ele>
        <time>2021-04-18T11:45:20Z</time>
      </trkpt>
      <trkpt lat="43.6248" lon="5.44324">
        <ele>458.27</ele>
        <time>2021-04-18T11:45:43Z</time>
      </trkpt>
      <trkpt lat="43.62471" lon="5.44294">
        <ele>458.53</ele>
        <time>2021-04-18T11:46:03Z</time>
      </trkpt>
      <trkpt lat="43.62472" lon="5.44271">
        <ele>458.58</ele>
        <time>2021-04-18T11:46:18Z</time>
      </trkpt>
      <trkpt lat="43.62471" lon="5.44259">
        <ele>458.01</ele>
        <time>2021-04-18T11:46:27Z</time>
      </trkpt>
      <trkpt lat="43.62464" lon="5.4423">
        <ele>456.11</ele>
        <time>2021-04-18T11:46:45Z</time>
      </trkpt>
      <trkpt lat="43.62459" lon="5.44202">
        <ele>454.11</ele>
        <time>2021-04-18T11:47:04Z</time>
      </trkpt>
      <trkpt lat="43.62456" lon="5.44174">
        <ele>453.12</ele>
        <time>2021-04-18T11:47:22Z</time>
      </trkpt>
      <trkpt lat="43.62457" lon="5.44134">
        <ele>451.46</ele>
        <time>2021-04-18T11:47:46Z</time>
      </trkpt>
      <trkpt lat="43.62463" lon="5.441">
        <ele>451.97</ele>
        <time>2021-04-18T11:48:09Z</time>
      </trkpt>
      <trkpt lat="43.62462" lon="5.44084">
        <ele>451.51</ele>
        <time>2021-04-18T11:48:18Z</time>
      </trkpt>
      <trkpt lat="43.62458" lon="5.44059">
        <ele>448.31</ele>
        <time>2021-04-18T11:48:37Z</time>
      </trkpt>
      <trkpt lat="43.6246" lon="5.44052">
        <ele>448.21</ele>
        <time>2021-04-18T11:48:45Z</time>
      </trkpt>
      <trkpt lat="43.6246" lon="5.44049">
        <ele>447.63</ele>
        <time>2021-04-18T11:48:47Z</time>
      </trkpt>
      <trkpt lat="43.62464" lon="5.4404">
        <ele>448.35</ele>
        <time>2021-04-18T11:48:55Z</time>
      </trkpt>
      <trkpt lat="43.62475" lon="5.44026">
        <ele>448.89</ele>
        <time>2021-04-18T11:49:11Z</time>
      </trkpt>
      <trkpt lat="43.62492" lon="5.44012">
        <ele>450.83</ele>
        <time>2021-04-18T11:49:30Z</time>
      </trkpt>
      <trkpt lat="43.62503" lon="5.43994">
        <ele>450.62</ele>
        <time>2021-04-18T11:49:48Z</time>
      </trkpt>
      <trkpt lat="43.6252" lon="5.43978">
        <ele>452.04</ele>
        <time>2021-04-18T11:50:11Z</time>
      </trkpt>
      <trkpt lat="43.62528" lon="5.43986">
        <ele>453.73</ele>
        <time>2021-04-18T11:50:31Z</time>
      </trkpt>
      <trkpt lat="43.62533" lon="5.43991">
        <ele>454.22</ele>
        <time>2021-04-18T11:50:39Z</time>
      </trkpt>
      <trkpt lat="43.62542" lon="5.43995">
        <ele>454.95</ele>
        <time>2021-04-18T11:50:55Z</time>
      </trkpt>
      <trkpt lat="43.62543" lon="5.43999">
        <ele>455.54</ele>
        <time>2021-04-18T11:51:15Z</time>
      </trkpt>
      <trkpt lat="43.62549" lon="5.44008">
        <ele>457.11</ele>
        <time>2021-04-18T11:51:32Z</time>
      </trkpt>
      <trkpt lat="43.62553" lon="5.44012">
        <ele>458.24</ele>
        <time>2021-04-18T11:51:39Z</time>
      </trkpt>
      <trkpt lat="43.62564" lon="5.44024">
        <ele>460.05</ele>
        <time>2021-04-18T11:51:58Z</time>
      </trkpt>
      <trkpt lat="43.62575" lon="5.44035">
        <ele>461.51</ele>
        <time>2021-04-18T11:52:15Z</time>
      </trkpt>
      <trkpt lat="43.62578" lon="5.44036">
        <ele>462.43</ele>
        <time>2021-04-18T11:52:29Z</time>
      </trkpt>
      <trkpt lat="43.6258" lon="5.44033">
        <ele>463.35</ele>
        <time>2021-04-18T11:52:37Z</time>
      </trkpt>
      <trkpt lat="43.62586" lon="5.44034">
        <ele>463.65</ele>
        <time>2021-04-18T11:52:53Z</time>
      </trkpt>
      <trkpt lat="43.62586" lon="5.44032">
        <ele>462.14</ele>
        <time>2021-04-18T11:53:07Z</time>
      </trkpt>
      <trkpt lat="43.62588" lon="5.44033">
        <ele>462.33</ele>
        <time>2021-04-18T11:53:40Z</time>
      </trkpt>
      <trkpt lat="43.62587" lon="5.44033">
        <ele>463.02</ele>
        <time>2021-04-18T11:54:42Z</time>
      </trkpt>
      <trkpt lat="43.62587" lon="5.44032">
        <ele>463.66</ele>
        <time>2021-04-18T11:56:01Z</time>
      </trkpt>
      <trkpt lat="43.62587" lon="5.44032">
        <ele>463.25</ele>
        <time>2021-04-18T11:57:10Z</time>
      </trkpt>
      <trkpt lat="43.62587" lon="5.44032">
        <ele>463.04</ele>
        <time>2021-04-18T11:58:21Z</time>
      </trkpt>
      <trkpt lat="43.62587" lon="5.44033">
        <ele>462.86</ele>
        <time>2021-04-18T11:59:29Z</time>
      </trkpt>
      <trkpt lat="43.62587" lon="5.44032">
        <ele>463.03</ele>
        <time>2021-04-18T12:00:36Z</time>
      </trkpt>
      <trkpt lat="43.62588" lon="5.44032">
        <ele>463.13</ele>
        <time>2021-04-18T12:01:34Z</time>
      </trkpt>
      <trkpt lat="43.62587" lon="5.44031">
        <ele>463.01</ele>
        <time>2021-04-18T12:02:44Z</time>
      </trkpt>
      <trkpt lat="43.62587" lon="5.44031">
        <ele>462.2</ele>
        <time>2021-04-18T12:03:53Z</time>
      </trkpt>
      <trkpt lat="43.62586" lon="5.4403">
        <ele>462.91</ele>
        <time>2021-04-18T12:05:09Z</time>
      </trkpt>
      <trkpt lat="43.62586" lon="5.44029">
        <ele>462.93</ele>
        <time>2021-04-18T12:06:24Z</time>
      </trkpt>
      <trkpt lat="43.62585" lon="5.44029">
        <ele>463.04</ele>
        <time>2021-04-18T12:07:42Z</time>
      </trkpt>
      <trkpt lat="43.62586" lon="5.44028">
        <ele>462.77</ele>
        <time>2021-04-18T12:08:48Z</time>
      </trkpt>
      <trkpt lat="43.62588" lon="5.44031">
        <ele>462.66</ele>
        <time>2021-04-18T12:09:20Z</time>
      </trkpt>
      <trkpt lat="43.62587" lon="5.44032">
        <ele>463.91</ele>
        <time>2021-04-18T12:09:23Z</time>
      </trkpt>
      <trkpt lat="43.62585" lon="5.44032">
        <ele>463.34</ele>
        <time>2021-04-18T12:09:27Z</time>
      </trkpt>
      <trkpt lat="43.62579" lon="5.44028">
        <ele>462.72</ele>
        <time>2021-04-18T12:09:38Z</time>
      </trkpt>
      <trkpt lat="43.62575" lon="5.44026">
        <ele>461.97</ele>
        <time>2021-04-18T12:09:52Z</time>
      </trkpt>
      <trkpt lat="43.62574" lon="5.44035">
        <ele>461.75</ele>
        <time>2021-04-18T12:10:04Z</time>
      </trkpt>
      <trkpt lat="43.62567" lon="5.44027">
        <ele>462</ele>
        <time>2021-04-18T12:10:17Z</time>
      </trkpt>
      <trkpt lat="43.62565" lon="5.44025">
        <ele>461.53</ele>
        <time>2021-04-18T12:10:20Z</time>
      </trkpt>
      <trkpt lat="43.6255" lon="5.44009">
        <ele>458.18</ele>
        <time>2021-04-18T12:10:40Z</time>
      </trkpt>
      <trkpt lat="43.62537" lon="5.43992">
        <ele>455.26</ele>
        <time>2021-04-18T12:10:58Z</time>
      </trkpt>
      <trkpt lat="43.62533" lon="5.4399">
        <ele>454.51</ele>
        <time>2021-04-18T12:11:02Z</time>
      </trkpt>
      <trkpt lat="43.62528" lon="5.43982">
        <ele>453.6</ele>
        <time>2021-04-18T12:11:13Z</time>
      </trkpt>
      <trkpt lat="43.62527" lon="5.43976">
        <ele>453.27</ele>
        <time>2021-04-18T12:11:19Z</time>
      </trkpt>
      <trkpt lat="43.62528" lon="5.43971">
        <ele>453.22</ele>
        <time>2021-04-18T12:11:23Z</time>
      </trkpt>
      <trkpt lat="43.62529" lon="5.4396">
        <ele>453.62</ele>
        <time>2021-04-18T12:11:31Z</time>
      </trkpt>
      <trkpt lat="43.62522" lon="5.43924">
        <ele>452.73</ele>
        <time>2021-04-18T12:11:54Z</time>
      </trkpt>
      <trkpt lat="43.62517" lon="5.43898">
        <ele>452.7</ele>
        <time>2021-04-18T12:12:12Z</time>
      </trkpt>
      <trkpt lat="43.62515" lon="5.43868">
        <ele>453.23</ele>
        <time>2021-04-18T12:12:32Z</time>
      </trkpt>
      <trkpt lat="43.62511" lon="5.4384">
        <ele>454.84</ele>
        <time>2021-04-18T12:12:53Z</time>
      </trkpt>
      <trkpt lat="43.62511" lon="5.43837">
        <ele>455.51</ele>
        <time>2021-04-18T12:12:56Z</time>
      </trkpt>
      <trkpt lat="43.62508" lon="5.43804">
        <ele>456.97</ele>
        <time>2021-04-18T12:13:18Z</time>
      </trkpt>
      <trkpt lat="43.62505" lon="5.43777">
        <ele>455.02</ele>
        <time>2021-04-18T12:13:39Z</time>
      </trkpt>
      <trkpt lat="43.62502" lon="5.43747">
        <ele>456.2</ele>
        <time>2021-04-18T12:14:00Z</time>
      </trkpt>
      <trkpt lat="43.62495" lon="5.43719">
        <ele>455.35</ele>
        <time>2021-04-18T12:14:20Z</time>
      </trkpt>
      <trkpt lat="43.62488" lon="5.43708">
        <ele>456.21</ele>
        <time>2021-04-18T12:14:31Z</time>
      </trkpt>
      <trkpt lat="43.6249" lon="5.43686">
        <ele>457.18</ele>
        <time>2021-04-18T12:14:50Z</time>
      </trkpt>
      <trkpt lat="43.6249" lon="5.43683">
        <ele>456.95</ele>
        <time>2021-04-18T12:14:52Z</time>
      </trkpt>
      <trkpt lat="43.62493" lon="5.43666">
        <ele>456.79</ele>
        <time>2021-04-18T12:15:06Z</time>
      </trkpt>
      <trkpt lat="43.62494" lon="5.43664">
        <ele>457.1</ele>
        <time>2021-04-18T12:15:08Z</time>
      </trkpt>
      <trkpt lat="43.62499" lon="5.43643">
        <ele>458.21</ele>
        <time>2021-04-18T12:15:24Z</time>
      </trkpt>
      <trkpt lat="43.625" lon="5.43638">
        <ele>458.12</ele>
        <time>2021-04-18T12:15:29Z</time>
      </trkpt>
      <trkpt lat="43.62501" lon="5.43608">
        <ele>458.82</ele>
        <time>2021-04-18T12:15:50Z</time>
      </trkpt>
      <trkpt lat="43.62497" lon="5.43577">
        <ele>457.96</ele>
        <time>2021-04-18T12:16:13Z</time>
      </trkpt>
      <trkpt lat="43.62501" lon="5.4356">
        <ele>458.77</ele>
        <time>2021-04-18T12:16:29Z</time>
      </trkpt>
      <trkpt lat="43.62513" lon="5.43568">
        <ele>460.73</ele>
        <time>2021-04-18T12:16:45Z</time>
      </trkpt>
      <trkpt lat="43.62522" lon="5.4358">
        <ele>462.61</ele>
        <time>2021-04-18T12:17:01Z</time>
      </trkpt>
      <trkpt lat="43.6253" lon="5.43585">
        <ele>465.71</ele>
        <time>2021-04-18T12:17:17Z</time>
      </trkpt>
      <trkpt lat="43.62539" lon="5.4359">
        <ele>466.42</ele>
        <time>2021-04-18T12:17:34Z</time>
      </trkpt>
      <trkpt lat="43.62548" lon="5.43587">
        <ele>467.6</ele>
        <time>2021-04-18T12:17:50Z</time>
      </trkpt>
      <trkpt lat="43.62561" lon="5.43588">
        <ele>469.12</ele>
        <time>2021-04-18T12:18:13Z</time>
      </trkpt>
      <trkpt lat="43.62572" lon="5.436">
        <ele>471.93</ele>
        <time>2021-04-18T12:18:35Z</time>
      </trkpt>
      <trkpt lat="43.62581" lon="5.43608">
        <ele>472.57</ele>
        <time>2021-04-18T12:18:49Z</time>
      </trkpt>
      <trkpt lat="43.62587" lon="5.43612">
        <ele>471.87</ele>
        <time>2021-04-18T12:19:04Z</time>
      </trkpt>
      <trkpt lat="43.62591" lon="5.43616">
        <ele>471.34</ele>
        <time>2021-04-18T12:19:18Z</time>
      </trkpt>
      <trkpt lat="43.62601" lon="5.43627">
        <ele>471.5</ele>
        <time>2021-04-18T12:19:37Z</time>
      </trkpt>
      <trkpt lat="43.626" lon="5.43628">
        <ele>472.24</ele>
        <time>2021-04-18T12:19:39Z</time>
      </trkpt>
      <trkpt lat="43.62603" lon="5.4364">
        <ele>474.16</ele>
        <time>2021-04-18T12:19:59Z</time>
      </trkpt>
      <trkpt lat="43.6261" lon="5.43656">
        <ele>476.49</ele>
        <time>2021-04-18T12:20:21Z</time>
      </trkpt>
      <trkpt lat="43.62621" lon="5.43675">
        <ele>477.46</ele>
        <time>2021-04-18T12:20:41Z</time>
      </trkpt>
      <trkpt lat="43.62628" lon="5.43688">
        <ele>477.61</ele>
        <time>2021-04-18T12:20:56Z</time>
      </trkpt>
      <trkpt lat="43.62633" lon="5.43698">
        <ele>479.69</ele>
        <time>2021-04-18T12:21:13Z</time>
      </trkpt>
      <trkpt lat="43.62644" lon="5.4371">
        <ele>481.3</ele>
        <time>2021-04-18T12:21:30Z</time>
      </trkpt>
      <trkpt lat="43.62651" lon="5.43721">
        <ele>482.1</ele>
        <time>2021-04-18T12:21:49Z</time>
      </trkpt>
      <trkpt lat="43.62662" lon="5.43731">
        <ele>484.09</ele>
        <time>2021-04-18T12:22:08Z</time>
      </trkpt>
      <trkpt lat="43.62673" lon="5.43745">
        <ele>486.24</ele>
        <time>2021-04-18T12:22:29Z</time>
      </trkpt>
      <trkpt lat="43.62684" lon="5.43761">
        <ele>487.03</ele>
        <time>2021-04-18T12:22:50Z</time>
      </trkpt>
      <trkpt lat="43.62693" lon="5.43777">
        <ele>488.14</ele>
        <time>2021-04-18T12:23:09Z</time>
      </trkpt>
      <trkpt lat="43.62697" lon="5.43791">
        <ele>488.41</ele>
        <time>2021-04-18T12:23:25Z</time>
      </trkpt>
      <trkpt lat="43.62698" lon="5.43806">
        <ele>488.24</ele>
        <time>2021-04-18T12:23:42Z</time>
      </trkpt>
      <trkpt lat="43.62699" lon="5.43832">
        <ele>487.42</ele>
        <time>2021-04-18T12:24:04Z</time>
      </trkpt>
      <trkpt lat="43.62697" lon="5.43858">
        <ele>486.6</ele>
        <time>2021-04-18T12:24:24Z</time>
      </trkpt>
      <trkpt lat="43.62695" lon="5.43877">
        <ele>485.83</ele>
        <time>2021-04-18T12:24:42Z</time>
      </trkpt>
      <trkpt lat="43.62692" lon="5.43894">
        <ele>485.91</ele>
        <time>2021-04-18T12:24:58Z</time>
      </trkpt>
      <trkpt lat="43.62688" lon="5.43908">
        <ele>484.96</ele>
        <time>2021-04-18T12:25:12Z</time>
      </trkpt>
      <trkpt lat="43.62683" lon="5.43932">
        <ele>484.03</ele>
        <time>2021-04-18T12:25:32Z</time>
      </trkpt>
      <trkpt lat="43.62683" lon="5.43943">
        <ele>484.71</ele>
        <time>2021-04-18T12:25:53Z</time>
      </trkpt>
      <trkpt lat="43.6268" lon="5.43951">
        <ele>484.67</ele>
        <time>2021-04-18T12:26:01Z</time>
      </trkpt>
      <trkpt lat="43.6268" lon="5.43976">
        <ele>483.44</ele>
        <time>2021-04-18T12:26:21Z</time>
      </trkpt>
      <trkpt lat="43.62678" lon="5.43989">
        <ele>483.86</ele>
        <time>2021-04-18T12:26:42Z</time>
      </trkpt>
      <trkpt lat="43.62681" lon="5.43999">
        <ele>482.74</ele>
        <time>2021-04-18T12:26:59Z</time>
      </trkpt>
      <trkpt lat="43.62677" lon="5.44013">
        <ele>482.91</ele>
        <time>2021-04-18T12:27:15Z</time>
      </trkpt>
      <trkpt lat="43.62676" lon="5.44026">
        <ele>481.79</ele>
        <time>2021-04-18T12:27:37Z</time>
      </trkpt>
      <trkpt lat="43.62672" lon="5.44037">
        <ele>482.12</ele>
        <time>2021-04-18T12:27:50Z</time>
      </trkpt>
      <trkpt lat="43.62669" lon="5.44052">
        <ele>482.17</ele>
        <time>2021-04-18T12:28:12Z</time>
      </trkpt>
      <trkpt lat="43.62674" lon="5.44054">
        <ele>482.54</ele>
        <time>2021-04-18T12:28:52Z</time>
      </trkpt>
      <trkpt lat="43.62676" lon="5.44045">
        <ele>482.29</ele>
        <time>2021-04-18T12:29:09Z</time>
      </trkpt>
      <trkpt lat="43.6268" lon="5.44021">
        <ele>482.78</ele>
        <time>2021-04-18T12:29:30Z</time>
      </trkpt>
      <trkpt lat="43.62681" lon="5.44001">
        <ele>484.14</ele>
        <time>2021-04-18T12:29:47Z</time>
      </trkpt>
      <trkpt lat="43.6268" lon="5.43985">
        <ele>484.26</ele>
        <time>2021-04-18T12:30:03Z</time>
      </trkpt>
      <trkpt lat="43.62679" lon="5.43977">
        <ele>484.18</ele>
        <time>2021-04-18T12:30:08Z</time>
      </trkpt>
      <trkpt lat="43.62683" lon="5.43956">
        <ele>484.2</ele>
        <time>2021-04-18T12:30:26Z</time>
      </trkpt>
      <trkpt lat="43.62691" lon="5.43949">
        <ele>481.16</ele>
        <time>2021-04-18T12:30:46Z</time>
      </trkpt>
      <trkpt lat="43.62698" lon="5.43945">
        <ele>477.47</ele>
        <time>2021-04-18T12:31:03Z</time>
      </trkpt>
      <trkpt lat="43.62705" lon="5.4394">
        <ele>475.49</ele>
        <time>2021-04-18T12:31:21Z</time>
      </trkpt>
      <trkpt lat="43.62709" lon="5.43933">
        <ele>472.43</ele>
        <time>2021-04-18T12:31:37Z</time>
      </trkpt>
      <trkpt lat="43.62713" lon="5.43927">
        <ele>471.3</ele>
        <time>2021-04-18T12:31:56Z</time>
      </trkpt>
      <trkpt lat="43.62718" lon="5.43925">
        <ele>467.98</ele>
        <time>2021-04-18T12:32:05Z</time>
      </trkpt>
      <trkpt lat="43.62728" lon="5.43913">
        <ele>464.77</ele>
        <time>2021-04-18T12:32:24Z</time>
      </trkpt>
      <trkpt lat="43.62739" lon="5.43916">
        <ele>462.22</ele>
        <time>2021-04-18T12:32:36Z</time>
      </trkpt>
      <trkpt lat="43.62746" lon="5.43917">
        <ele>460.93</ele>
        <time>2021-04-18T12:32:51Z</time>
      </trkpt>
      <trkpt lat="43.62746" lon="5.43905">
        <ele>462.07</ele>
        <time>2021-04-18T12:33:07Z</time>
      </trkpt>
      <trkpt lat="43.62747" lon="5.43885">
        <ele>462.6</ele>
        <time>2021-04-18T12:33:24Z</time>
      </trkpt>
      <trkpt lat="43.62752" lon="5.4386">
        <ele>461.87</ele>
        <time>2021-04-18T12:33:42Z</time>
      </trkpt>
      <trkpt lat="43.62754" lon="5.43853">
        <ele>462.02</ele>
        <time>2021-04-18T12:33:46Z</time>
      </trkpt>
      <trkpt lat="43.62753" lon="5.43836">
        <ele>461.64</ele>
        <time>2021-04-18T12:33:59Z</time>
      </trkpt>
      <trkpt lat="43.62753" lon="5.4383">
        <ele>462.8</ele>
        <time>2021-04-18T12:34:04Z</time>
      </trkpt>
      <trkpt lat="43.62758" lon="5.43802">
        <ele>460.9</ele>
        <time>2021-04-18T12:34:23Z</time>
      </trkpt>
      <trkpt lat="43.62754" lon="5.43775">
        <ele>462.08</ele>
        <time>2021-04-18T12:34:41Z</time>
      </trkpt>
      <trkpt lat="43.6275" lon="5.43756">
        <ele>462.13</ele>
        <time>2021-04-18T12:34:56Z</time>
      </trkpt>
      <trkpt lat="43.62749" lon="5.43752">
        <ele>461.35</ele>
        <time>2021-04-18T12:34:59Z</time>
      </trkpt>
      <trkpt lat="43.62745" lon="5.43734">
        <ele>460.41</ele>
        <time>2021-04-18T12:35:12Z</time>
      </trkpt>
      <trkpt lat="43.62744" lon="5.43729">
        <ele>460.28</ele>
        <time>2021-04-18T12:35:16Z</time>
      </trkpt>
      <trkpt lat="43.62738" lon="5.43711">
        <ele>459.51</ele>
        <time>2021-04-18T12:35:32Z</time>
      </trkpt>
      <trkpt lat="43.62737" lon="5.43709">
        <ele>459.42</ele>
        <time>2021-04-18T12:35:33Z</time>
      </trkpt>
      <trkpt lat="43.62722" lon="5.43692">
        <ele>459.06</ele>
        <time>2021-04-18T12:35:50Z</time>
      </trkpt>
      <trkpt lat="43.62699" lon="5.43672">
        <ele>458.24</ele>
        <time>2021-04-18T12:36:13Z</time>
      </trkpt>
      <trkpt lat="43.62685" lon="5.43658">
        <ele>457.46</ele>
        <time>2021-04-18T12:36:30Z</time>
      </trkpt>
      <trkpt lat="43.62671" lon="5.43645">
        <ele>454.59</ele>
        <time>2021-04-18T12:36:48Z</time>
      </trkpt>
      <trkpt lat="43.62659" lon="5.43631">
        <ele>453.68</ele>
        <time>2021-04-18T12:37:04Z</time>
      </trkpt>
      <trkpt lat="43.62648" lon="5.43613">
        <ele>452.25</ele>
        <time>2021-04-18T12:37:23Z</time>
      </trkpt>
      <trkpt lat="43.62635" lon="5.436">
        <ele>450.16</ele>
        <time>2021-04-18T12:37:42Z</time>
      </trkpt>
      <trkpt lat="43.62634" lon="5.43594">
        <ele>449.81</ele>
        <time>2021-04-18T12:37:46Z</time>
      </trkpt>
      <trkpt lat="43.62631" lon="5.43588">
        <ele>448.87</ele>
        <time>2021-04-18T12:37:50Z</time>
      </trkpt>
      <trkpt lat="43.62621" lon="5.43571">
        <ele>447.31</ele>
        <time>2021-04-18T12:38:08Z</time>
      </trkpt>
      <trkpt lat="43.62622" lon="5.43556">
        <ele>444.72</ele>
        <time>2021-04-18T12:38:23Z</time>
      </trkpt>
      <trkpt lat="43.62633" lon="5.43556">
        <ele>443.59</ele>
        <time>2021-04-18T12:38:34Z</time>
      </trkpt>
      <trkpt lat="43.62642" lon="5.43558">
        <ele>442.19</ele>
        <time>2021-04-18T12:38:45Z</time>
      </trkpt>
      <trkpt lat="43.62644" lon="5.43559">
        <ele>442.4</ele>
        <time>2021-04-18T12:38:47Z</time>
      </trkpt>
      <trkpt lat="43.62662" lon="5.43562">
        <ele>440.19</ele>
        <time>2021-04-18T12:39:07Z</time>
      </trkpt>
      <trkpt lat="43.62667" lon="5.43562">
        <ele>438.26</ele>
        <time>2021-04-18T12:39:11Z</time>
      </trkpt>
      <trkpt lat="43.62683" lon="5.43565">
        <ele>436.43</ele>
        <time>2021-04-18T12:39:26Z</time>
      </trkpt>
      <trkpt lat="43.62687" lon="5.43566">
        <ele>437.34</ele>
        <time>2021-04-18T12:39:41Z</time>
      </trkpt>
      <trkpt lat="43.62692" lon="5.43568">
        <ele>435.65</ele>
        <time>2021-04-18T12:39:57Z</time>
      </trkpt>
      <trkpt lat="43.62712" lon="5.43575">
        <ele>433.91</ele>
        <time>2021-04-18T12:40:16Z</time>
      </trkpt>
      <trkpt lat="43.62733" lon="5.43584">
        <ele>431.24</ele>
        <time>2021-04-18T12:40:37Z</time>
      </trkpt>
      <trkpt lat="43.62739" lon="5.43587">
        <ele>430.73</ele>
        <time>2021-04-18T12:40:44Z</time>
      </trkpt>
      <trkpt lat="43.62757" lon="5.43592">
        <ele>429.98</ele>
        <time>2021-04-18T12:41:04Z</time>
      </trkpt>
      <trkpt lat="43.62759" lon="5.43592">
        <ele>430.61</ele>
        <time>2021-04-18T12:41:06Z</time>
      </trkpt>
      <trkpt lat="43.62766" lon="5.43592">
        <ele>429.39</ele>
        <time>2021-04-18T12:41:14Z</time>
      </trkpt>
      <trkpt lat="43.62788" lon="5.43593">
        <ele>426.6</ele>
        <time>2021-04-18T12:41:35Z</time>
      </trkpt>
      <trkpt lat="43.62803" lon="5.43601">
        <ele>425.22</ele>
        <time>2021-04-18T12:41:52Z</time>
      </trkpt>
      <trkpt lat="43.62814" lon="5.43614">
        <ele>423.17</ele>
        <time>2021-04-18T12:42:09Z</time>
      </trkpt>
      <trkpt lat="43.62825" lon="5.43622">
        <ele>420.07</ele>
        <time>2021-04-18T12:42:23Z</time>
      </trkpt>
      <trkpt lat="43.62839" lon="5.43632">
        <ele>418.66</ele>
        <time>2021-04-18T12:42:40Z</time>
      </trkpt>
      <trkpt lat="43.62851" lon="5.43642">
        <ele>417.02</ele>
        <time>2021-04-18T12:42:55Z</time>
      </trkpt>
      <trkpt lat="43.62865" lon="5.43653">
        <ele>415.1</ele>
        <time>2021-04-18T12:43:12Z</time>
      </trkpt>
      <trkpt lat="43.62876" lon="5.43663">
        <ele>413.55</ele>
        <time>2021-04-18T12:43:28Z</time>
      </trkpt>
      <trkpt lat="43.62888" lon="5.43668">
        <ele>411.63</ele>
        <time>2021-04-18T12:43:44Z</time>
      </trkpt>
      <trkpt lat="43.62903" lon="5.43678">
        <ele>409.42</ele>
        <time>2021-04-18T12:44:01Z</time>
      </trkpt>
      <trkpt lat="43.62921" lon="5.43688">
        <ele>409.02</ele>
        <time>2021-04-18T12:44:21Z</time>
      </trkpt>
      <trkpt lat="43.62923" lon="5.43689">
        <ele>407.4</ele>
        <time>2021-04-18T12:44:24Z</time>
      </trkpt>
      <trkpt lat="43.62936" lon="5.43692">
        <ele>406.92</ele>
        <time>2021-04-18T12:44:40Z</time>
      </trkpt>
      <trkpt lat="43.62941" lon="5.43694">
        <ele>405.62</ele>
        <time>2021-04-18T12:44:45Z</time>
      </trkpt>
      <trkpt lat="43.62953" lon="5.43699">
        <ele>405.29</ele>
        <time>2021-04-18T12:45:00Z</time>
      </trkpt>
      <trkpt lat="43.6297" lon="5.43692">
        <ele>404.91</ele>
        <time>2021-04-18T12:45:18Z</time>
      </trkpt>
      <trkpt lat="43.62984" lon="5.43683">
        <ele>404.32</ele>
        <time>2021-04-18T12:45:36Z</time>
      </trkpt>
      <trkpt lat="43.63002" lon="5.4367">
        <ele>404.32</ele>
        <time>2021-04-18T12:45:57Z</time>
      </trkpt>
      <trkpt lat="43.63021" lon="5.43661">
        <ele>403.53</ele>
        <time>2021-04-18T12:46:18Z</time>
      </trkpt>
      <trkpt lat="43.6303" lon="5.43649">
        <ele>403.7</ele>
        <time>2021-04-18T12:46:35Z</time>
      </trkpt>
      <trkpt lat="43.6304" lon="5.43633">
        <ele>404.38</ele>
        <time>2021-04-18T12:46:53Z</time>
      </trkpt>
      <trkpt lat="43.63049" lon="5.43609">
        <ele>405.15</ele>
        <time>2021-04-18T12:47:10Z</time>
      </trkpt>
      <trkpt lat="43.6305" lon="5.43607">
        <ele>404.08</ele>
        <time>2021-04-18T12:47:12Z</time>
      </trkpt>
      <trkpt lat="43.63056" lon="5.43585">
        <ele>404.99</ele>
        <time>2021-04-18T12:47:30Z</time>
      </trkpt>
      <trkpt lat="43.63066" lon="5.43563">
        <ele>404.22</ele>
        <time>2021-04-18T12:47:47Z</time>
      </trkpt>
      <trkpt lat="43.63077" lon="5.43552">
        <ele>403.25</ele>
        <time>2021-04-18T12:48:02Z</time>
      </trkpt>
      <trkpt lat="43.63097" lon="5.43536">
        <ele>402.51</ele>
        <time>2021-04-18T12:48:23Z</time>
      </trkpt>
      <trkpt lat="43.63106" lon="5.43529">
        <ele>401.68</ele>
        <time>2021-04-18T12:48:33Z</time>
      </trkpt>
      <trkpt lat="43.63119" lon="5.4352">
        <ele>401.14</ele>
        <time>2021-04-18T12:48:45Z</time>
      </trkpt>
      <trkpt lat="43.63123" lon="5.43518">
        <ele>399.66</ele>
        <time>2021-04-18T12:48:48Z</time>
      </trkpt>
      <trkpt lat="43.63137" lon="5.43504">
        <ele>399.83</ele>
        <time>2021-04-18T12:49:06Z</time>
      </trkpt>
      <trkpt lat="43.63143" lon="5.43493">
        <ele>398.76</ele>
        <time>2021-04-18T12:49:16Z</time>
      </trkpt>
      <trkpt lat="43.63146" lon="5.4349">
        <ele>399.38</ele>
        <time>2021-04-18T12:49:19Z</time>
      </trkpt>
      <trkpt lat="43.63157" lon="5.43482">
        <ele>398.3</ele>
        <time>2021-04-18T12:49:32Z</time>
      </trkpt>
      <trkpt lat="43.63158" lon="5.43477">
        <ele>398.68</ele>
        <time>2021-04-18T12:49:35Z</time>
      </trkpt>
      <trkpt lat="43.6317" lon="5.43459">
        <ele>399.4</ele>
        <time>2021-04-18T12:49:52Z</time>
      </trkpt>
      <trkpt lat="43.63183" lon="5.43445">
        <ele>399.09</ele>
        <time>2021-04-18T12:50:09Z</time>
      </trkpt>
      <trkpt lat="43.63196" lon="5.43434">
        <ele>399.47</ele>
        <time>2021-04-18T12:50:24Z</time>
      </trkpt>
      <trkpt lat="43.63204" lon="5.43423">
        <ele>399.76</ele>
        <time>2021-04-18T12:50:35Z</time>
      </trkpt>
      <trkpt lat="43.63207" lon="5.43418">
        <ele>399.45</ele>
        <time>2021-04-18T12:50:38Z</time>
      </trkpt>
      <trkpt lat="43.63211" lon="5.43414">
        <ele>399.16</ele>
        <time>2021-04-18T12:50:42Z</time>
      </trkpt>
      <trkpt lat="43.6323" lon="5.43403">
        <ele>399.74</ele>
        <time>2021-04-18T12:51:01Z</time>
      </trkpt>
      <trkpt lat="43.6325" lon="5.43395">
        <ele>398.34</ele>
        <time>2021-04-18T12:51:20Z</time>
      </trkpt>
      <trkpt lat="43.63266" lon="5.43393">
        <ele>397.29</ele>
        <time>2021-04-18T12:51:35Z</time>
      </trkpt>
      <trkpt lat="43.63268" lon="5.43392">
        <ele>397.89</ele>
        <time>2021-04-18T12:51:37Z</time>
      </trkpt>
      <trkpt lat="43.63284" lon="5.43387">
        <ele>398.04</ele>
        <time>2021-04-18T12:51:56Z</time>
      </trkpt>
      <trkpt lat="43.63301" lon="5.43379">
        <ele>397.77</ele>
        <time>2021-04-18T12:52:12Z</time>
      </trkpt>
      <trkpt lat="43.63325" lon="5.43373">
        <ele>398.05</ele>
        <time>2021-04-18T12:52:34Z</time>
      </trkpt>
      <trkpt lat="43.63341" lon="5.43368">
        <ele>397.77</ele>
        <time>2021-04-18T12:52:51Z</time>
      </trkpt>
      <trkpt lat="43.63347" lon="5.43367">
        <ele>397.51</ele>
        <time>2021-04-18T12:52:56Z</time>
      </trkpt>
      <trkpt lat="43.63374" lon="5.43358">
        <ele>398.12</ele>
        <time>2021-04-18T12:53:20Z</time>
      </trkpt>
      <trkpt lat="43.63391" lon="5.43354">
        <ele>398.33</ele>
        <time>2021-04-18T12:53:36Z</time>
      </trkpt>
      <trkpt lat="43.63409" lon="5.43351">
        <ele>396.96</ele>
        <time>2021-04-18T12:53:54Z</time>
      </trkpt>
      <trkpt lat="43.6342" lon="5.43346">
        <ele>395.72</ele>
        <time>2021-04-18T12:54:08Z</time>
      </trkpt>
      <trkpt lat="43.63426" lon="5.43344">
        <ele>395.79</ele>
        <time>2021-04-18T12:54:13Z</time>
      </trkpt>
      <trkpt lat="43.63445" lon="5.43333">
        <ele>394.9</ele>
        <time>2021-04-18T12:54:34Z</time>
      </trkpt>
      <trkpt lat="43.63464" lon="5.43323">
        <ele>393.94</ele>
        <time>2021-04-18T12:54:53Z</time>
      </trkpt>
      <trkpt lat="43.63481" lon="5.43312">
        <ele>392.96</ele>
        <time>2021-04-18T12:55:09Z</time>
      </trkpt>
      <trkpt lat="43.63493" lon="5.43302">
        <ele>391.77</ele>
        <time>2021-04-18T12:55:25Z</time>
      </trkpt>
      <trkpt lat="43.63505" lon="5.43294">
        <ele>391.12</ele>
        <time>2021-04-18T12:55:40Z</time>
      </trkpt>
      <trkpt lat="43.63508" lon="5.43292">
        <ele>391.03</ele>
        <time>2021-04-18T12:55:43Z</time>
      </trkpt>
      <trkpt lat="43.63521" lon="5.43277">
        <ele>390.49</ele>
        <time>2021-04-18T12:55:59Z</time>
      </trkpt>
      <trkpt lat="43.63538" lon="5.43261">
        <ele>389.74</ele>
        <time>2021-04-18T12:56:17Z</time>
      </trkpt>
      <trkpt lat="43.63553" lon="5.43246">
        <ele>388.13</ele>
        <time>2021-04-18T12:56:36Z</time>
      </trkpt>
      <trkpt lat="43.63568" lon="5.43225">
        <ele>388.28</ele>
        <time>2021-04-18T12:56:55Z</time>
      </trkpt>
      <trkpt lat="43.63569" lon="5.43224">
        <ele>387.92</ele>
        <time>2021-04-18T12:56:56Z</time>
      </trkpt>
      <trkpt lat="43.63582" lon="5.43214">
        <ele>388.14</ele>
        <time>2021-04-18T12:57:12Z</time>
      </trkpt>
      <trkpt lat="43.63591" lon="5.43209">
        <ele>388.19</ele>
        <time>2021-04-18T12:57:22Z</time>
      </trkpt>
      <trkpt lat="43.63595" lon="5.43205">
        <ele>388.76</ele>
        <time>2021-04-18T12:57:26Z</time>
      </trkpt>
      <trkpt lat="43.63609" lon="5.43198">
        <ele>386.29</ele>
        <time>2021-04-18T12:57:42Z</time>
      </trkpt>
      <trkpt lat="43.63624" lon="5.4319">
        <ele>386.01</ele>
        <time>2021-04-18T12:58:00Z</time>
      </trkpt>
      <trkpt lat="43.63629" lon="5.43187">
        <ele>385.63</ele>
        <time>2021-04-18T12:58:06Z</time>
      </trkpt>
      <trkpt lat="43.63645" lon="5.43187">
        <ele>384.19</ele>
        <time>2021-04-18T12:58:21Z</time>
      </trkpt>
      <trkpt lat="43.63653" lon="5.43186">
        <ele>384.23</ele>
        <time>2021-04-18T12:58:29Z</time>
      </trkpt>
      <trkpt lat="43.63671" lon="5.43177">
        <ele>384.07</ele>
        <time>2021-04-18T12:58:49Z</time>
      </trkpt>
      <trkpt lat="43.63673" lon="5.43176">
        <ele>383.98</ele>
        <time>2021-04-18T12:58:51Z</time>
      </trkpt>
      <trkpt lat="43.63693" lon="5.43172">
        <ele>383.81</ele>
        <time>2021-04-18T12:59:09Z</time>
      </trkpt>
      <trkpt lat="43.63706" lon="5.43174">
        <ele>384.27</ele>
        <time>2021-04-18T12:59:22Z</time>
      </trkpt>
      <trkpt lat="43.63721" lon="5.43176">
        <ele>383.82</ele>
        <time>2021-04-18T12:59:37Z</time>
      </trkpt>
      <trkpt lat="43.63737" lon="5.43179">
        <ele>383.16</ele>
        <time>2021-04-18T12:59:54Z</time>
      </trkpt>
      <trkpt lat="43.6375" lon="5.43181">
        <ele>381.1</ele>
        <time>2021-04-18T13:00:12Z</time>
      </trkpt>
      <trkpt lat="43.63763" lon="5.43186">
        <ele>378.82</ele>
        <time>2021-04-18T13:00:31Z</time>
      </trkpt>
      <trkpt lat="43.6378" lon="5.43188">
        <ele>376.52</ele>
        <time>2021-04-18T13:00:50Z</time>
      </trkpt>
      <trkpt lat="43.63796" lon="5.43194">
        <ele>375.63</ele>
        <time>2021-04-18T13:01:10Z</time>
      </trkpt>
      <trkpt lat="43.63801" lon="5.43198">
        <ele>374.14</ele>
        <time>2021-04-18T13:01:27Z</time>
      </trkpt>
      <trkpt lat="43.63798" lon="5.43202">
        <ele>372.44</ele>
        <time>2021-04-18T13:01:32Z</time>
      </trkpt>
      <trkpt lat="43.63784" lon="5.43214">
        <ele>371.78</ele>
        <time>2021-04-18T13:01:50Z</time>
      </trkpt>
      <trkpt lat="43.6377" lon="5.43222">
        <ele>371.52</ele>
        <time>2021-04-18T13:02:06Z</time>
      </trkpt>
      <trkpt lat="43.63755" lon="5.4322">
        <ele>370.48</ele>
        <time>2021-04-18T13:02:22Z</time>
      </trkpt>
      <trkpt lat="43.63753" lon="5.4322">
        <ele>371.57</ele>
        <time>2021-04-18T13:02:24Z</time>
      </trkpt>
      <trkpt lat="43.6374" lon="5.43225">
        <ele>370.07</ele>
        <time>2021-04-18T13:02:38Z</time>
      </trkpt>
      <trkpt lat="43.63735" lon="5.43227">
        <ele>369.54</ele>
        <time>2021-04-18T13:02:45Z</time>
      </trkpt>
      <trkpt lat="43.63717" lon="5.4323">
        <ele>370.69</ele>
        <time>2021-04-18T13:03:04Z</time>
      </trkpt>
      <trkpt lat="43.63713" lon="5.43238">
        <ele>370.39</ele>
        <time>2021-04-18T13:03:22Z</time>
      </trkpt>
      <trkpt lat="43.63709" lon="5.43236">
        <ele>370.21</ele>
        <time>2021-04-18T13:03:38Z</time>
      </trkpt>
      <trkpt lat="43.63695" lon="5.43229">
        <ele>370.83</ele>
        <time>2021-04-18T13:03:55Z</time>
      </trkpt>
      <trkpt lat="43.63682" lon="5.4323">
        <ele>372.7</ele>
        <time>2021-04-18T13:04:13Z</time>
      </trkpt>
      <trkpt lat="43.63673" lon="5.43226">
        <ele>374.07</ele>
        <time>2021-04-18T13:04:32Z</time>
      </trkpt>
      <trkpt lat="43.63683" lon="5.43233">
        <ele>371.85</ele>
        <time>2021-04-18T13:04:50Z</time>
      </trkpt>
      <trkpt lat="43.63698" lon="5.43236">
        <ele>370.01</ele>
        <time>2021-04-18T13:05:07Z</time>
      </trkpt>
      <trkpt lat="43.63716" lon="5.43234">
        <ele>369.43</ele>
        <time>2021-04-18T13:05:25Z</time>
      </trkpt>
      <trkpt lat="43.63737" lon="5.4323">
        <ele>369.22</ele>
        <time>2021-04-18T13:05:46Z</time>
      </trkpt>
      <trkpt lat="43.63752" lon="5.43223">
        <ele>369.65</ele>
        <time>2021-04-18T13:06:03Z</time>
      </trkpt>
      <trkpt lat="43.63768" lon="5.43223">
        <ele>369.93</ele>
        <time>2021-04-18T13:06:20Z</time>
      </trkpt>
      <trkpt lat="43.63779" lon="5.43219">
        <ele>370.5</ele>
        <time>2021-04-18T13:06:31Z</time>
      </trkpt>
      <trkpt lat="43.63792" lon="5.43207">
        <ele>370.93</ele>
        <time>2021-04-18T13:06:46Z</time>
      </trkpt>
      <trkpt lat="43.63802" lon="5.43198">
        <ele>373.72</ele>
        <time>2021-04-18T13:07:01Z</time>
      </trkpt>
      <trkpt lat="43.63817" lon="5.43197">
        <ele>372.92</ele>
        <time>2021-04-18T13:07:20Z</time>
      </trkpt>
      <trkpt lat="43.63834" lon="5.43199">
        <ele>371.62</ele>
        <time>2021-04-18T13:07:40Z</time>
      </trkpt>
      <trkpt lat="43.63854" lon="5.43202">
        <ele>369.65</ele>
        <time>2021-04-18T13:08:00Z</time>
      </trkpt>
      <trkpt lat="43.63874" lon="5.43205">
        <ele>369.21</ele>
        <time>2021-04-18T13:08:18Z</time>
      </trkpt>
      <trkpt lat="43.63885" lon="5.43207">
        <ele>369.08</ele>
        <time>2021-04-18T13:08:28Z</time>
      </trkpt>
      <trkpt lat="43.639" lon="5.43211">
        <ele>368.02</ele>
        <time>2021-04-18T13:08:46Z</time>
      </trkpt>
      <trkpt lat="43.63921" lon="5.43215">
        <ele>368.49</ele>
        <time>2021-04-18T13:09:05Z</time>
      </trkpt>
      <trkpt lat="43.63928" lon="5.43219">
        <ele>368.33</ele>
        <time>2021-04-18T13:09:14Z</time>
      </trkpt>
      <trkpt lat="43.63931" lon="5.4322">
        <ele>367.71</ele>
        <time>2021-04-18T13:09:17Z</time>
      </trkpt>
      <trkpt lat="43.6395" lon="5.43226">
        <ele>367.86</ele>
        <time>2021-04-18T13:09:36Z</time>
      </trkpt>
      <trkpt lat="43.63952" lon="5.43227">
        <ele>367.84</ele>
        <time>2021-04-18T13:09:38Z</time>
      </trkpt>
      <trkpt lat="43.63972" lon="5.43223">
        <ele>368.97</ele>
        <time>2021-04-18T13:09:55Z</time>
      </trkpt>
      <trkpt lat="43.63981" lon="5.43223">
        <ele>367.72</ele>
        <time>2021-04-18T13:10:04Z</time>
      </trkpt>
      <trkpt lat="43.63997" lon="5.43228">
        <ele>366.77</ele>
        <time>2021-04-18T13:10:21Z</time>
      </trkpt>
      <trkpt lat="43.64015" lon="5.43233">
        <ele>366.25</ele>
        <time>2021-04-18T13:10:38Z</time>
      </trkpt>
      <trkpt lat="43.64035" lon="5.43237">
        <ele>367.21</ele>
        <time>2021-04-18T13:10:59Z</time>
      </trkpt>
      <trkpt lat="43.64052" lon="5.43243">
        <ele>367.65</ele>
        <time>2021-04-18T13:11:13Z</time>
      </trkpt>
      <trkpt lat="43.64065" lon="5.43245">
        <ele>367.52</ele>
        <time>2021-04-18T13:11:30Z</time>
      </trkpt>
      <trkpt lat="43.64079" lon="5.43249">
        <ele>366.15</ele>
        <time>2021-04-18T13:11:43Z</time>
      </trkpt>
      <trkpt lat="43.64082" lon="5.4325">
        <ele>366.3</ele>
        <time>2021-04-18T13:11:46Z</time>
      </trkpt>
      <trkpt lat="43.64101" lon="5.43257">
        <ele>365.29</ele>
        <time>2021-04-18T13:12:03Z</time>
      </trkpt>
      <trkpt lat="43.64113" lon="5.43264">
        <ele>365.28</ele>
        <time>2021-04-18T13:12:16Z</time>
      </trkpt>
      <trkpt lat="43.6413" lon="5.43269">
        <ele>365.69</ele>
        <time>2021-04-18T13:12:33Z</time>
      </trkpt>
      <trkpt lat="43.64143" lon="5.43276">
        <ele>362.69</ele>
        <time>2021-04-18T13:12:48Z</time>
      </trkpt>
      <trkpt lat="43.6416" lon="5.43279">
        <ele>362.01</ele>
        <time>2021-04-18T13:13:06Z</time>
      </trkpt>
      <trkpt lat="43.64176" lon="5.43283">
        <ele>362.43</ele>
        <time>2021-04-18T13:13:24Z</time>
      </trkpt>
      <trkpt lat="43.64191" lon="5.43283">
        <ele>363.56</ele>
        <time>2021-04-18T13:13:37Z</time>
      </trkpt>
      <trkpt lat="43.64195" lon="5.43283">
        <ele>362.65</ele>
        <time>2021-04-18T13:13:40Z</time>
      </trkpt>
      <trkpt lat="43.64216" lon="5.43288">
        <ele>364.13</ele>
        <time>2021-04-18T13:14:00Z</time>
      </trkpt>
      <trkpt lat="43.64231" lon="5.433">
        <ele>364.01</ele>
        <time>2021-04-18T13:14:18Z</time>
      </trkpt>
      <trkpt lat="43.64236" lon="5.43306">
        <ele>364.62</ele>
        <time>2021-04-18T13:14:26Z</time>
      </trkpt>
      <trkpt lat="43.64246" lon="5.43319">
        <ele>366.08</ele>
        <time>2021-04-18T13:14:44Z</time>
      </trkpt>
      <trkpt lat="43.64256" lon="5.43327">
        <ele>367.81</ele>
        <time>2021-04-18T13:15:05Z</time>
      </trkpt>
      <trkpt lat="43.64265" lon="5.4334">
        <ele>369.41</ele>
        <time>2021-04-18T13:15:24Z</time>
      </trkpt>
      <trkpt lat="43.64282" lon="5.4334">
        <ele>369.92</ele>
        <time>2021-04-18T13:15:45Z</time>
      </trkpt>
      <trkpt lat="43.64287" lon="5.43337">
        <ele>370.87</ele>
        <time>2021-04-18T13:15:50Z</time>
      </trkpt>
      <trkpt lat="43.64308" lon="5.43334">
        <ele>369.39</ele>
        <time>2021-04-18T13:16:11Z</time>
      </trkpt>
      <trkpt lat="43.64329" lon="5.43341">
        <ele>370.51</ele>
        <time>2021-04-18T13:16:34Z</time>
      </trkpt>
      <trkpt lat="43.64347" lon="5.43341">
        <ele>370.37</ele>
        <time>2021-04-18T13:16:55Z</time>
      </trkpt>
      <trkpt lat="43.64364" lon="5.43346">
        <ele>371.49</ele>
        <time>2021-04-18T13:17:16Z</time>
      </trkpt>
      <trkpt lat="43.64376" lon="5.43361">
        <ele>370.48</ele>
        <time>2021-04-18T13:17:34Z</time>
      </trkpt>
      <trkpt lat="43.64378" lon="5.43367">
        <ele>370.28</ele>
        <time>2021-04-18T13:17:41Z</time>
      </trkpt>
      <trkpt lat="43.6438" lon="5.43371">
        <ele>370.86</ele>
        <time>2021-04-18T13:17:55Z</time>
      </trkpt>
      <trkpt lat="43.64377" lon="5.43371">
        <ele>369.55</ele>
        <time>2021-04-18T13:18:10Z</time>
      </trkpt>
      <trkpt lat="43.64377" lon="5.43371">
        <ele>369.55</ele>
        <time>2021-04-18T13:18:11Z</time>
      </trkpt>
    </trkseg>
  </trk>
</gpx>